Water and Atmospheric Resources Monitoring Program - , Illinois State Water Survey

Water and Atmospheric Resources Monitoring Program (WARM)

Weather Soil Groundwater Sediment Streamflow Reservoirs

#103 Rock (USGS #5437500)


Instantaneous Suspended Sediment Measurements

Date Time    Gage Ht. Temp Cs Qw Qs Final F
i
n
a
l
     (feet) (C) (mg/l) (cfs) (t/d)  
10/15/1980 09:29    5.57 10 78.00 6587 1,387.0 True x
10/28/1980 10:35    4.94 151.00 5446 2,220.0 True x
11/12/1980 14:33    4.09 45.00 3952 480.2 True x
11/25/1980 11:00    3.74 101.00 3379 921.5 True x
12/12/1980 10:00    4.66  107.00 4946 1,429.0 True x
1/28/1981 12:30    3.07  35.00 2370 224.0 True x
2/23/1981 12:35    7.11 184.00 9648 4,793.0 True x
3/4/1981 11:10    6.35 33.00 8099 721.6 True x
3/11/1981 11:45    5.41 68.00 6291 1,155.0 True x
3/18/1981 11:50    5.04 25.00 5626 379.8 True x
3/25/1981 10:54    4.29 65.00 4297 754.1 True x
3/31/1981 13:22    3.97 17 73.00 3751 739.3 True x
4/1/1981 07:45    4.06 10 56.00 3901 589.9 True x
4/2/1981 07:25    3.76 54.00 3411 497.3 True x
4/3/1981 07:27    4.02 13 57.00 3834 590.0 True x
4/3/1981 15:25    3.89 18 100.00 3621 977.6 True x
4/4/1981 08:40    4.16 14 69.00 4072 758.7 True x
4/5/1981 09:37    3.83 133.00 3524 1,265.0 True x
4/6/1981 07:15    4.11 120.00 3986 1,292.0 True x
4/7/1981 07:40    4.02 51.00 3834 527.9 True x
4/7/1981 15:25    4.08 15 53.00 3935 563.1 True x
4/8/1981 06:45    3.97 12 67.00 3751 678.6 True x
4/9/1981 07:15    4.45 61.00 4577 753.8 True x
4/9/1981 16:00    4.47 16 56.00 4612 697.4 True x
4/10/1981 07:35    4.39 11 73.00 4471 881.3 True x
4/11/1981 07:00    5.27 14 114.00 6038 1,858.0 True x
4/11/1981 16:45    5.58 13 150.00 6605 2,675.0 True x
4/12/1981 07:45    5.82 11 119.00 7059 2,268.0 True x
4/12/1981 17:00    6.00 11 140.00 7405 2,799.0 True x
4/13/1981 07:35    5.95 11 227.00 7309 4,480.0 True x
4/14/1981 07:35    6.24 10 185.00 7879 3,935.0 True x
4/14/1981 15:18    6.40 14 133.00 8199 2,944.0 True x
4/15/1981 07:40    6.57 143.00 8542 3,298.0 True x
4/15/1981 15:20    6.58 14 136.00 8562 3,144.0 True x
4/16/1981 07:55    6.38 11 196.00 8159 4,318.0 True x
4/17/1981 07:50    6.21 12 112.00 7819 2,364.0 True x
4/18/1981 08:35    6.08 12 106.00 7563 2,164.0 True x
4/19/1981 06:35    5.88 11 89.00 7175 1,724.0 True x
4/20/1981 07:25    5.65 10 90.00 6737 1,637.0 True x
4/21/1981 07:00    5.67 88.00 6775 1,610.0 True x
4/21/1981 13:30    5.49 11 98.00 6437 1,703.0 True x
4/21/1981 15:55    5.47 11 80.00 6400 1,382.0 True x
4/22/1981 07:30    5.36 12 80.00 6201 1,339.0 True x
4/23/1981 08:00    5.37 10 79.00 6219 1,326.0 True x
4/23/1981 15:35    5.32 10 77.00 6128 1,274.0 True x
4/24/1981 07:40    5.09 73.00 5715 1,126.0 True x
4/25/1981 08:15    5.14 66.00 5804 1,034.0 True x
4/26/1981 09:10    4.95 19 69.00 5464 1,018.0 True x
4/27/1981 07:30    4.90 10 73.00 5374 1,059.0 True x
4/28/1981 07:20    4.75 15 71.00 5106 978.0 True x
4/29/1981 07:29    4.81 10 75.00 5213 1,056.0 True x
4/29/1981 15:30    4.73 15 75.00 5070 1,027.0 True x
4/30/1981 07:35    4.80 12 76.00 5195 1,066.0 True x
4/30/1981 15:30    4.89 12 70.00 5356 1,012.0 True x
5/1/1981 07:40    4.74 10 78.00 5088 1,072.0 True x
5/2/1981 07:10    4.79 76.00 5177 1,062.0 True x
5/2/1981 17:12    4.56 15 92.00 4770 1,185.0 True x
5/3/1981 07:20    4.59 11 83.00 4823 1,081.0 True x
5/3/1981 16:12    4.56 18 89.00 4770 1,146.0 True x
5/4/1981 07:35    4.45 15 92.00 4577 1,137.0 True x
5/5/1981 07:35    4.40 15 82.00 4489 993.9 True x
5/6/1981 07:30    4.39 10 80.00 4471 965.8 True x
5/7/1981 07:20    4.28 10 74.00 4279 855.0 True x
5/8/1981 07:30    4.13 10 79.00 4021 857.6 True x
5/9/1981 09:37    4.01 14 78.00 3817 803.8 True x
5/10/1981 08:50    4.05 88.00 3885 923.0 True x
5/11/1981 07:45    4.16 65.00 4072 714.7 True x
5/11/1981 15:25    4.16 12 58.00 4072 637.7 True x
5/12/1981 07:00    3.87 65.00 3588 629.8 True x
5/13/1981 07:45    3.78 11 77.00 3443 715.8 True x
5/14/1981 07:00    3.72 11 80.00 3347 723.0 True x
5/15/1981 15:05    3.91 18 66.00 3653 651.0 True x
5/16/1981 06:40    3.45 12 108.00 2926 853.1 True x
5/16/1981 15:35    3.50 19 100.00 3000 810.0 True x
5/17/1981 08:10    3.49 13 101.00 2985 814.0 True x
5/18/1981 07:55    3.56 11 89.00 3094 743.4 True x
5/18/1981 15:40    3.56 14 95.00 3094 793.5 True x
5/19/1981 07:40    3.33 11 100.00 2747 741.8 True x
5/19/1981 15:10    3.33 16 99.00 2747 734.4 True x
5/20/1981 07:20    3.10 13 120.00 2413 781.8 True x
5/20/1981 15:12    3.00 19 130.00 2270 796.8 True x
5/21/1981 07:30    3.08 14 123.00 2384 791.9 True x
5/21/1981 15:20    3.08 20 120.00 2384 772.5 True x
5/22/1981 07:45    3.06 16 138.00 2356 877.8 True x
5/22/1981 15:30    2.96 19 183.00 2213 1,093.0 True x
5/23/1981 08:45    2.95 18 166.00 2199 985.4 True x
5/24/1981 08:20    2.92 18 154.00 2156 896.3 True x
5/25/1981 07:00    2.95 16 173.00 2199 1,027.0 True x
5/26/1981 07:15    2.98 17 164.00 2241 992.5 True x
5/26/1981 15:25    3.06 23 156.00 2356 992.3 True x
5/27/1981 08:00    2.95 17 162.00 2199 961.6 True x
5/27/1981 15:00    2.96 22 183.00 2213 1,093.0 True x
5/28/1981 07:55    2.78 17 214.00 1960 1,132.0 True x
5/28/1981 15:10    2.87 24 203.00 2085 1,143.0 True x
5/29/1981 07:40    2.62 19 208.00 1750 983.0 True x
5/29/1981 16:15    2.73 23 198.00 1893 1,012.0 True x
5/30/1981 08:25    2.80 19 185.00 1987 992.5 True x
5/31/1981 09:45    2.72 20 193.00 1879 979.1 True x
6/1/1981 08:00    2.79 19 178.00 1974 948.5 True x
6/1/1981 15:30    2.81 25 189.00 2001 1,021.0 True x
6/2/1981 07:25    2.72 20 202.00 1879 1,025.0 True x
6/2/1981 15:15    2.70 23 216.00 1852 1,080.0 True x
6/3/1981 07:45    2.75 20 196.00 1920 1,016.0 True x
6/3/1981 13:00    2.75 21 181.00 1920 938.1 True x
6/3/1981 15:25    2.76 22 230.00 1933 1,200.0 True x
6/4/1981 07:40    2.76 19 167.00 1933 871.6 True x
6/4/1981 15:40    2.75 24 203.00 1920 1,052.0 True x
6/5/1981 07:30    2.80 20 176.00 1987 944.2 True x
6/5/1981 15:20    2.93 25 198.00 2170 1,160.0 True x
6/6/1981 08:05    2.71 21 183.00 1865 921.7 True x
6/6/1981 17:00    2.58 25 212.00 1701 973.7 True x
6/7/1981 05:50    2.71 19 170.00 1865 856.3 True x
6/7/1981 20:25    2.67 22 200.00 1814 979.5 True x
6/8/1981 07:05    2.68 22 234.00 1827 1,154.0 True x
6/8/1981 15:20    2.67 23 220.00 1814 1,077.0 True x
6/9/1981 07:25    2.65 18 197.00 1789 951.3 True x
6/9/1981 15:00    2.72 18 209.00 1879 1,060.0 True x
6/10/1981 07:25    2.76 18 206.00 1933 1,075.0 True x
6/10/1981 15:15    2.76 22 171.00 1933 892.5 True x
6/11/1981 07:40    2.76 19 166.00 1933 866.4 True x
6/11/1981 15:10    2.75 23 198.00 1920 1,026.0 True x
6/12/1981 07:20    2.77 19 185.00 1947 972.3 True x
6/12/1981 15:20    2.77 24 179.00 1947 940.7 True x
6/13/1981 07:25    3.05 20 154.00 2342 973.6 True x
6/14/1981 10:25    4.27 24 1,789.00 4262 20,580.0 True x
6/14/1981 19:45    4.36 24 1,052.00 4419 12,550.0 True x
6/15/1981 07:20    4.41 23 1,537.00 4507 18,690.0 True x
6/15/1981 15:15    4.47 24 1,475.00 4612 18,360.0 True x
6/16/1981 07:15    4.37 21 670.00 4437 8,026.0 True x
6/16/1981 15:30    4.50 21 418.00 4665 5,265.0 True x
6/17/1981 06:50    4.78 18 315.00 5159 4,388.0 True x
6/17/1981 15:15    4.55 23 518.00 4753 6,647.0 True x
6/18/1981 06:45    4.38 19 691.00 4454 8,310.0 True x
6/18/1981 15:15    5.04 24 491.00 5626 7,459.0 True x
6/19/1981 06:50    5.05 19 433.00 5644 6,598.0 True x
6/19/1981 15:30    5.04 23 372.00 5626 5,651.0 True x
6/20/1981 09:30    4.90 20 216.00 5374 3,134.0 True x
6/22/1981 07:45    4.63 18 130.00 4893 1,717.0 True x
6/22/1981 15:25    4.47 22 139.00 4612 1,731.0 True x
6/23/1981 07:20    4.35 18 124.00 4402 1,473.8 True x
6/23/1981 15:15    4.44 24 137.00 4559 1,687.0 True x
6/24/1981 06:45    4.61 19 128.00 4858 1,679.0 True x
6/24/1981 15:25    4.80 23 137.00 5195 1,922.0 True x
6/25/1981 09:00    4.69 20 150.00 4999 2,025.0 True x
6/25/1981 15:19    4.84 23 147.00 5267 2,090.0 True x
6/26/1981 07:40    4.70 20 164.00 5017 2,222.0 True x
6/26/1981 15:25    4.70 23 166.00 5017 2,249.0 True x
6/27/1981 07:30    4.68 19 170.00 4982 2,287.0 True x
6/27/1981 18:55    4.50 23 186.00 4665 2,343.0 True x
6/28/1981 06:45    4.50 20 152.00 4665 1,915.0 True x
6/28/1981 20:40    4.28 22 170.00 4279 1,964.0 True x
6/29/1981 07:55    4.13 22 156.00 4021 1,693.0 True x
6/29/1981 15:40    4.09 26 156.00 3952 1,665.0 True x
6/30/1981 07:40    3.92 22 136.00 3670 1,347.0 True x
6/30/1981 15:20    3.91 25 171.00 3653 1,687.0 True x
7/1/1981 07:50    3.99 21 128.00 3784 1,308.0 True x
7/1/1981 15:20    3.98 24 150.00 3767 1,526.0 True x
7/2/1981 07:45    3.79 23 172.00 3459 1,606.0 True x
7/2/1981 15:20    3.79 25 142.00 3459 1,326.0 True x
7/3/1981 06:00    3.47 21 193.00 2955 1,540.0 True x
7/3/1981 16:05    3.49 24 138.00 2985 1,112.0 True x
7/4/1981 07:20    3.51 22 161.00 3016 1,311.0 True x
7/4/1981 16:50    3.20 28 225.00 2557 1,553.0 True x
7/5/1981 07:45    3.15 22 229.00 2485 1,536.0 True x
7/5/1981 16:45    3.17 27 263.00 2514 1,785.0 True x
7/6/1981 07:00    3.03 22 229.00 2313 1,430.0 True x
7/6/1981 15:10    2.92 28 252.00 2156 1,467.0 True x
7/7/1981 07:05    3.27 22 174.00 2659 1,249.0 True x
7/7/1981 15:05    3.23 28 187.00 2601 1,313.0 True x
7/8/1981 07:25    2.87 24 219.00 2085 1,233.0 True x
7/8/1981 15:50    2.91 28 205.00 2141 1,185.0 True x
7/9/1981 07:40    2.91 25 203.00 2141 1,174.0 True x
7/9/1981 15:10    2.91 26 192.00 2141 1,110.0 True x
7/10/1981 07:30    2.93 21 200.00 2170 1,172.0 True x
7/10/1981 15:15    2.79 28 215.00 1974 1,146.0 True x
7/11/1981 08:00    2.56 23 189.00 1677 855.8 True x
7/12/1981 07:50    2.65 24 177.00 1789 854.7 True x
7/12/1981 19:30    2.62 28 226.00 1750 1,068.0 True x
7/13/1981 08:05    2.62 25 155.00 1750 732.5 True x
7/13/1981 16:40    2.76 28 178.00 1933 929.0 True x
7/14/1981 07:30    2.87 24 149.00 2085 838.8 True x
7/14/1981 13:00    2.73 26 120.00 1893 613.2 True x
7/14/1981 15:25    2.73 26 152.00 1893 776.7 True x
7/15/1981 07:25    2.65 22 207.00 1789 999.6 True x
7/15/1981 15:20    3.01 22 163.00 2284 1,005.0 True x
7/16/1981 07:30    2.91 21 220.00 2141 1,272.0 True x
7/16/1981 15:35    3.12 25 200.00 2442 1,319.0 True x
7/17/1981 07:10    3.13 24 196.00 2456 1,300.0 True x
7/17/1981 16:00    3.10 27 269.00 2413 1,753.0 True x
7/18/1981 07:25    3.06 22 213.00 2356 1,355.0 True x
7/18/1981 16:10    3.06 29 225.00 2356 1,431.0 True x
7/19/1981 07:20    2.97 23 183.00 2227 1,100.0 True x
7/19/1981 18:05    2.96 27 158.00 2213 944.0 True x
7/20/1981 07:30    2.92 23 144.00 2156 838.1 True x
7/20/1981 15:00    2.92 27 151.00 2156 878.8 True x
7/21/1981 07:45    2.90 22 152.00 2127 872.9 True x
7/21/1981 15:15    3.13 24 123.00 2456 815.7 True x
7/22/1981 07:25    3.40 20 146.00 2851 1,124.0 True x
7/22/1981 15:15    3.48 23 177.00 2970 1,419.0 True x
7/23/1981 07:30    3.15 19 232.00 2485 1,557.0 True x
7/23/1981 15:25    3.19 22 205.00 2543 1,407.0 True x
7/24/1981 08:00    3.34 19 133.00 2762 991.9 True x
7/24/1981 15:15    3.30 25 114.00 2703 832.0 True x
7/25/1981 06:55    2.88 21 140.00 2099 793.4 True x
7/25/1981 15:30    2.90 23 127.00 2127 729.3 True x
7/26/1981 08:15    3.17 20 106.00 2514 719.4 True x
7/26/1981 16:05    3.19 22 162.00 2543 1,112.0 True x
7/27/1981 07:30    2.99 18 142.00 2256 864.8 True x
7/27/1981 15:00    3.06 19 163.00 2356 1,037.0 True x
7/28/1981 07:45    3.29 17 103.00 2688 747.6 True x
7/28/1981 15:05    3.40 18 147.00 2851 1,132.0 True x
7/29/1981 07:10    3.22 16 128.00 2586 893.8 True x
8/6/1981 14:50    3.47 25 88.00 2955 702.2 True x
8/11/1981 13:15    2.86 23 106.00 2071 592.7 True x
8/20/1981 15:35    3.66 22 106.00 3251 930.6 True x
8/26/1981 15:45    2.89 24 136.00 2113 775.9 True x
9/3/1981 13:30    6.10 21 167.00 7602 3,428.0 True x
9/9/1981 14:40    6.38 19 100.00 8159 2,203.0 True x
9/17/1981 14:55    4.57  119.00 4787 1,538.0 True x
9/23/1981 13:30    3.97  79.00 3751 800.1 True x
10/13/1981 13:35    4.69 13 70.00 4998 944.7 True x
10/20/1981 12:10    6.55 10 110.00 8501 2,525.0 True x
10/29/1981 13:45    5.99 44.00 7386 1,037.0 True x
11/2/1981 13:20    5.55 10 55.00 6549 972.5 True x
11/9/1981 14:00    5.07 41.00 5679 628.7 True x
12/4/1981 12:15    5.47 48.00 6400 829.5 True x
12/9/1981 16:15    5.07 44.00 5679 674.7 True x
12/17/1981 14:20    4.38 29.00 4453 348.7 True x
2/16/1982 13:45    3.94 61.00 3702 609.7 True x
3/2/1982 12:30    5.44 36.00 6345 616.8 True x
3/10/1982 13:00    4.20 108.00 4140 1,207.0 True x
3/31/1982 11:00    8.00 99.00 11500 2,857.0 True x
4/20/1982 12:50    8.32 10 99.00 12180 3,256.0 True x
4/29/1982 16:15    6.67 13 94.00 8765 2,201.0 True x
5/5/1982 17:00    5.70 19 51.00 6831 940.7 True x
5/12/1982 09:40    5.59 20 85.00 6623 1,520.0 True x
5/18/1982 15:15    5.01 22 88.00 5573 1,324.0 True x
5/26/1982 13:25    5.11 15 109.00 5750 1,692.0 True x
6/3/1982 14:00    6.34 18 107.00 8078 2,334.0 True x
6/16/1982 12:15    4.63 19 165.00 4893 2,074.0 True x
6/22/1982 12:05    4.12 19 231.00 4003 2,497.0 True x
7/2/1982 12:05    4.51 20 192.00 4682 2,428.0 True x
7/7/1982 12:10    4.63 24 198.00 4893 2,616.0 True x
7/14/1982 13:40    6.64 24 133.00 8684 3,119.0 True x
7/21/1982 13:20    5.08 25 126.00 5697 1,938.0 True x
7/28/1982 12:30    5.57 25 101.00 6511 1,916.0 True x
8/4/1982 11:40    5.27 25 84.00 6037 1,369.0 True x
8/11/1982 09:45    5.50 20 152.00 6455 2,649.0 True x
8/18/1982 12:00    4.30 22 107.00 4313 1,246.0 True x
8/26/1982 12:25    3.58 20 196.00 3125 1,654.0 True x
9/1/1982 13:00    3.49 19 174.00 2985 1,403.0 True x
9/16/1982 11:40    3.17 17 176.00 2514 1,195.0 True x
9/29/1982 12:30    3.02 15 136.00 2298 844.0 True x
10/29/1982 14:15    3.67 10 26.00 3267 229.4 True x
11/1/1982 10:00    4.01 11 45.00 3817 463.8 True x
12/2/1982 15:30    5.77 23.00 6964 432.5 True x
12/9/1982 16:00    8.28 37.00 12100 1,208.0 True x
3/17/1983 14:45    6.41 63.00 8219 1,398.0 True x
3/28/1983 13:45    6.36 30.00 8119 657.6 True x
3/28/1983 14:30    6.43 64.00 8259 1,427.0 True x
4/14/1983 13:30    8.81 96.00 13230 3,430.0 True x
4/22/1983 14:30    7.52 12 89.00 10490 2,521.0 True x
4/29/1983 15:20    6.47 15 70.00 8340 1,576.0 True x
5/13/1983 14:00    5.38 16 62.00 6237 1,044.0 True x
5/19/1983 13:45    5.29 15 68.00 6074 1,115.0 True x
5/27/1983 14:00    6.00 17 87.00 7405 1,740.0 True x
6/1/1983 14:15    5.71 16 71.00 6850 1,313.0 True x
6/4/1983 14:15    9.30 73.00 14320 2,823.0 True x
7/8/1983 17:00    4.93 24 192.00 5428 2,814.0 True x
7/15/1983 14:30    3.65 27 196.00 3236 1,712.0 True x
7/20/1983 14:45    3.72 29 159.00 3347 1,437.0 True x
8/1/1983 16:00    3.63 28 113.00 3204 977.5 True x
8/31/1983 11:00    3.86 24 123.00 3572 1,186.0 True x
9/16/1983 11:30    3.36 17 65.00 2792 490.0 True x
9/21/1983 14:45    3.33 15 94.00 2747 697.3 True x
10/7/1983 14:40    3.16 17 72.00 2499 486.0 True x
10/19/1983 14:30    3.35 11 29.00 2777 217.0 True x
10/27/1983 13:30    3.74 10 23.00 3379 210.0 True x
11/3/1983 11:30    3.56 11 30.00 3094 251.0 True x
12/1/1983 14:30    4.72 48.00 5052 655.0 True x
12/12/1983 13:30    4.99 23.00 5537 344.0 True x
1/6/1984 10:50    5.13 6.00 5786 94.0 True x
1/13/1984 10:30    4.34 3.00 4383 35.0 True x
1/26/1984 11:00    8.30 29.00 12140 951.0 True x
2/8/1984 10:40    8.30 16.00 12140 524.0 True x
2/14/1984 13:30    5.68 74.00 6793 1,357.0 True x
2/20/1984 11:00    7.08 64.00 9587 1,657.0 True x
3/1/1984 13:10    6.09 23.00 7582 471.0 True x
3/8/1984 09:45    5.59 15.00 6624 268.0 True x
3/15/1984 13:45    4.99 38.00 5537 568.0 True x
3/20/1984 11:50    5.90 27.00 7213 526.0 True x
3/29/1984 14:20    5.39 52.00 6254 878.0 True x
4/6/1984 12:00    5.00 40.00 5555 600.0 True x
4/13/1984 11:15    4.75 92.00 5105 1,268.0 True x
4/20/1984 09:00    4.71 90.00 5034 1,223.0 True x
4/27/1984 11:30    5.31 15 157.00 6110 2,590.0 True x
5/4/1984 11:30    6.82 13 171.00 9053 4,180.0 True x
5/9/1984 11:00    6.29 11 91.00 7978 1,960.0 True x
5/15/1984 12:30    5.77 14 76.00 6964 1,429.0 True x
5/23/1984 11:00    5.25 18 70.00 6001 1,134.0 True x
5/31/1984 13:25    6.42 15 125.00 8239 2,781.0 True x
6/8/1984 11:00    5.12 22 149.00 5768 2,320.0 True x
6/13/1984 14:00    5.97 22 114.00 7347 2,261.0 True x
6/22/1984 19:20    7.29 22 151.00 10020 4,085.0 True x
6/29/1984 13:30    6.14 21 114.00 7681 2,364.0 True x
7/6/1984 17:00    5.56 23 83.00 6567 1,472.0 True x
7/10/1984 13:30    6.09 22 111.00 7582 2,272.0 True x
7/20/1984 11:30    5.88 23 133.00 7174 2,576.0 True x
7/25/1984 11:00    4.85 24 109.00 5284 1,555.0 True x
8/3/1984 13:30    3.27 23 244.00 2659 1,752.0 True x
8/9/1984 09:45    4.19 25 106.00 4123 1,180.0 True x
8/15/1984 13:00    3.52 24 95.00 3031 777.0 True x
8/23/1984 11:20    3.00 20 182.00 2270 1,115.0 True x
8/31/1984 13:00    3.02 22 87.00 2298 540.0 True x
9/6/1984 13:00    3.78 18 131.00 3443 1,218.0 True x
9/13/1984 10:30    2.52 21 122.00 1629 537.0 True x
9/17/1984 12:30    4.96 16 80.00 5482 1,184.0 True x
9/20/1984 11:30    2.68 19 101.00 1826 498.0 True x
9/28/1984 14:15    4.09 13 95.00 3952 1,014.0 True x
10/5/1984 12:00    2.78 13 102.00 1901 523.0 True x
10/9/1984 17:15    3.68 16 60.00 3143 509.0 True x
10/18/1984 10:30    4.10 12 74.00 3779 755.0 True x
10/23/1984 10:00    6.66 151.00 8283 3,377.0 True x
10/31/1984 11:45    6.28 59.00 7554 1,203.0 True x
11/7/1984 13:45    7.53 56.00 10020 1,515.0 True x
11/15/1984 13:20    6.76 37.00 8478 847.0 True x
11/21/1984 11:15    5.84 30.00 6735 545.0 True x
11/30/1984 13:20    5.70 48.00 6480 840.0 True x
12/6/1984 12:00    4.47 26.00 4367 307.0 True x
12/14/1984 10:00    5.04 19.00 5316 273.0 True x
12/19/1984 10:00    5.42 30.00 5978 484.0 True x
12/27/1984 11:15    5.17 15.00 5540 224.0 True x
1/4/1985 13:30    7.09 36.00 9130 887.0 True x
1/10/1985 10:30    7.11 15.00 9170 371.0 True x
1/18/1985 10:00    8.44 9.00 11940 290.0 True x
2/18/1985 10:50    4.96 73.00 5180 1,021.0 True x
2/25/1985 11:00    9.22 77.00 13670 2,842.0 True x
2/26/1985 14:00    10.38 110.00 16370 4,862.0 True x
3/6/1985 13:00    10.49 48.00 16640 2,156.0 True x
3/15/1985 12:30    9.00 43.00 13170 1,529.0 True x
3/19/1985 10:30    8.37 75.00 11790 2,387.0 True x
3/29/1985 14:00    7.89 74.00 10770 2,152.0 True x
4/6/1985 15:00    8.02 83.00 11040 2,474.0 True x
4/12/1985 10:45    7.64 10 73.00 10250 2,020.0 True x
4/19/1985 15:00    6.75 15 66.00 8458 1,507.0 True x
4/26/1985 10:00    6.25 15 70.00 7498 1,417.0 True x
5/9/1985 10:50    4.83 18 75.00 4960 1,004.0 True x
5/16/1985 11:30    4.74 17 160.00 4810 2,078.0 True x
5/23/1985 15:15    4.28 21 78.00 4062 855.0 True x
5/30/1985 15:15    4.63 22 252.00 4628 3,149.0 True x
6/7/1985 09:00    3.60 20 169.00 3026 1,381.0 True x
6/7/1985 12:20    3.36 20 202.00 2682 1,463.0 True x
6/13/1985 14:45    3.45 19 215.00 2809 1,631.0 True x
6/20/1985 15:00    3.25 22 117.00 2528 799.0 True x
6/27/1985 14:00    3.64 28 144.00 3084 1,199.0 True x
7/5/1985 05:15    2.91 20 156.00 2070 872.0 True x
7/11/1985 12:30    2.83 26 198.00 1966 1,051.0 True x
7/18/1985 15:00    2.69 27 108.00 1787 521.0 True x
7/23/1985 11:45    3.34 25 114.00 2654 817.0 True x
7/25/1985 11:35    2.88 24 138.00 2030 756.0 True x
8/2/1985 08:00    3.28 21 71.00 2570 493.0 True x
8/8/1985 14:00    3.10 26 92.00 2323 577.0 True x
8/16/1985 15:00    3.06 25 96.00 2269 588.0 True x
8/23/1985 10:45    3.46 23 62.00 2824 473.0 True x
8/29/1985 08:00    3.29 21 123.00 2584 858.0 True x
9/6/1985 08:00    3.48 24 91.00 2852 701.0 True x
9/10/1985 12:30    5.51 22 89.00 6138 1,475.0 True x
9/13/1985 14:30    6.50 20 79.00 7974 1,701.0 True x
9/20/1985 13:05    4.09 22 88.00 3764 894.0 True x
9/26/1985 14:35    4.11 14 61.00 3795 625.0 True x
10/3/1985 09:25    3.99 13 24.00 3610 234.0 True x
10/10/1985 11:35    4.73 12 36.00 4793 466.0 True x
10/17/1985 15:15    5.31 14 56.00 5784 874.0 True x
10/24/1985 10:00    5.49 14 70.00 6103 1,153.0 True x
11/1/1985 08:45    5.79 12 48.00 6643 861.0 True x
11/7/1985 13:30    8.20 64.00 11420 1,973.0 True x
11/8/1985 14:30    8.00 68.00 11000 2,020.0 True x
11/15/1985 08:00    7.73 30.00 10430 845.0 True x
11/21/1985 14:30    8.80 70.00 12720 2,404.0 True x
11/27/1985 14:30    8.06 67.00 11120 2,012.0 True x
12/5/1985 14:15    8.02 64.00 11040 1,908.0 True x
12/12/1985 15:00    6.79 25.00 8537 576.0 True x
1/23/1986 08:10    5.76 25.00 6589 445.0 True x
1/30/1986 11:45    6.07 12.00 7160 232.0 True x
2/13/1986 10:30    6.40 14.00 7782 294.0 True x
2/27/1986 11:45    5.22 28.00 5627 425.0 True x
3/7/1986 13:45    5.43 73.00 5996 1,182.0 True x
3/10/1986 14:00    8.23 228.00 11490 7,073.0 True x
3/13/1986 08:25    8.81 64.00 12740 2,201.0 True x
3/20/1986 15:00    10.27 35.00 16110 1,522.0 True x
3/27/1986 14:50    10.42 34.00 16470 1,512.0 True x
4/3/1986 09:40    9.56 10 64.00 14440 2,495.0 True x
4/10/1986 15:10    8.22 12 86.00 11460 2,661.0 True x
4/17/1986 13:30    7.37 50.00 9694 1,309.0 True x
4/22/1986 12:45    6.75 10 87.00 8458 1,987.0 True x
4/24/1986 14:40    6.45 13 68.00 7878 1,446.0 True x
5/1/1986 11:00    6.11 15 81.00 7235 1,582.0 True x
5/10/1986 07:00    5.28 16 77.00 5732 1,192.0 True x
5/16/1986 10:15    5.37 16 72.00 5890 1,145.0 True x
5/21/1986 13:00    6.51 15 99.00 7993 2,136.0 True x
5/22/1986 10:10    6.45 15 120.00 7878 2,552.0 True x
5/30/1986 14:45    5.41 20 106.00 5961 1,706.0 True x
6/5/1986 09:30    4.62 18 147.00 4611 1,830.0 True x
6/12/1986 09:30    4.05 19 224.00 3702 2,239.0 True x
6/20/1986 13:30    4.21 23 249.00 3951 2,656.0 True x
6/26/1986 14:00    4.95 24 282.00 5163 3,931.0 True x
7/2/1986 15:00    4.19 22 140.00 3920 1,482.0 True x
7/10/1986 11:00    4.66 22 136.00 4677 1,717.0 True x
7/17/1986 14:00    4.31 27 121.00 4110 1,343.0 True x
7/23/1986 13:15    4.63 28 80.00 4628 1,000.0 True x
7/24/1986 14:00    5.00 27 49.00 5248 694.0 True x
7/31/1986 13:30    4.43 25 48.00 4302 557.0 True x
8/7/1986 15:00    4.05 22 65.00 3702 650.0 True x
8/14/1986 10:30    4.11 20 42.00 3795 430.0 True x
8/21/1986 15:00    3.81 23 59.00 3337 532.0 True x
8/28/1986 13:30    3.76 18 32.00 3262 282.0 True x
9/4/1986 14:30    3.96 23 83.00 3564 799.0 True x
9/11/1986 15:00    4.46 18 50.00 4350 587.0 True x
9/12/1986 15:00    5.04 20 61.00 5316 875.0 True x
9/18/1986 13:15    5.74 15 58.00 6552 1,026.0 True x
9/26/1986 13:30    9.07 20 196.00 13330 7,054.0 True x
10/2/1986 14:50    10.64 11 55.00 17720 2,631.4 True x
10/10/1986 08:00    10.02 11 43.00 16270 1,888.9 True x
10/16/1986 14:35    8.92 10 33.00 13790 1,228.7 True x
10/23/1986 14:30    7.79 12 42.00 11340 1,286.0 True x
10/23/1986 15:50    7.81 12 44.00 11380 1,351.9 True x
10/24/1986 14:00    7.57 11 39.00 10880 1,145.7 True x
10/31/1986 13:00    7.31 11 75.00 10340 2,093.9 True x
11/6/1986 14:30    6.50 22.00 8700 516.8 True x
11/15/1986 10:00    5.44 94.00 6505 1,651.0 True x
11/24/1986 08:15    5.49 28.00 6608 499.6 True x
11/26/1986 09:40    5.57 29.00 6773 530.3 True x
12/4/1986 13:25    5.22 58.00 6060 949.0 True x
12/5/1986 13:50    5.28 120.00 6180 2,002.3 True x
12/5/1986 15:00    5.21 132.00 6040 2,152.7 True x
12/11/1986 10:10    4.97 71.00 5567 1,067.2 True x
12/18/1986 11:55    4.92 30.00 5471 443.2 True x
12/31/1986 11:15    4.33 16.00 4371 188.8 True x
1/8/1987 13:00    4.25 21.00 4228 239.7 True x
1/15/1987 15:00    4.14 20.00 4017 216.9 True x
1/22/1987 08:30    4.01 11.00 3809 113.1 True x
1/29/1987 08:00    4.36 9.00 4425 107.5 True x
2/5/1987 13:00    4.57 49.00 4808 636.1 True x
2/12/1987 11:45    4.47 33.00 4624 412.0 True x
2/12/1987 13:45    4.35 62.00 4389 734.7 True x
2/12/1987 15:00    4.60 23.00 5032 312.5 True x
2/19/1987 10:50    4.16 59.00 4069 648.2 True x
2/26/1987 14:45    3.92 23.00 3656 227.0 True x
3/5/1987 14:30    4.70 78.00 5051 1,063.7 True x
3/13/1987 09:30    4.59 19.00 4845 248.5 True x
3/20/1987 07:00    5.11 33.00 5842 520.5 True x
3/26/1987 08:00    4.90 46.00 5432 674.7 True x
4/2/1987 08:00    4.82 49.00 5278 698.3 True x
4/6/1987 14:00    4.89 64.00 5393 931.9 True x
4/6/1987 14:55    4.88 10 52.00 5393 757.2 True x
4/16/1987 14:23    5.30 12 46.00 6221 772.6 True x
4/23/1987 14:30    6.17 15 86.00 8039 1,866.7 True x
4/29/1987 14:45    6.03 16 92.00 7748 1,924.6 True x
4/29/1987 15:35    6.03 16 81.00 7748 1,694.5 True x
4/30/1987 14:30    6.03 15 77.00 7748 1,610.8 True x
5/6/1987 08:00    6.00 13 66.00 7683 1,369.1 True x
5/14/1987 09:00    5.07 15 42.00 5763 653.5 True x
5/21/1987 14:30    5.10 24 101.00 6000 1,636.2 True x
5/29/1987 15:00    5.12 25 137.00 5861 2,168.0 True x
6/4/1987 14:00    4.60 22 167.00 5032 2,268.9 True x
6/5/1987 14:00    4.44 24 159.00 4570 1,961.9 True x
6/5/1987 15:15    4.45 24 165.00 4588 2,044.0 True x
6/11/1987 08:00    3.71 20 266.00 3306 2,374.4 True x
6/19/1987 08:00    3.13 25 245.00 2403 1,589.6 True x
6/25/1987 14:00    3.17 23 308.00 2462 2,047.4 True x
7/2/1987 09:00    2.98 22 239.00 2185 1,410.0 True x
7/9/1987 14:00    3.04 26 161.00 2272 987.6 True x
7/16/1987 14:30    3.10 23 137.00 2359 872.6 True x
7/24/1987 13:20    2.75 27 110.00 1865 553.9 True x
7/24/1987 14:10    2.80 27 112.00 1933 584.5 True x
7/30/1987 13:00    3.12 25 110.00 2388 709.2 True x
8/7/1987 15:00    2.90 25 179.00 2072 1,001.4 True x
8/13/1987 15:00    3.74 24 100.00 3355 905.9 True x
8/19/1987 12:00    4.65 24 111.00 4957 1,485.6 True x
8/19/1987 13:20    4.65 24 108.00 4957 1,445.5 True x
8/20/1987 15:00    4.42 24 138.00 4533 1,689.0 True x
8/27/1987 13:30    5.15 17 177.00 5921 2,829.6 True x
9/3/1987 15:00    4.30 20 117.00 4317 1,363.7 True x
9/10/1987 14:30    3.60 19 120.00 3128 1,013.5 True x
9/17/1987 14:00    3.96 18 99.00 3724 995.4 True x
9/24/1987 14:30    4.15 17 40.00 4052 437.6 True x
10/1/1987 15:00    4.08 16 45.00 3930 477.5 True x
10/8/1987 15:00    3.66 10 45.00 3225 391.8 True x
7/20/1988 13:40    2.71 28 85.00 1811 417.5 True x
7/20/1988 14:30    2.66 28 77.00 1744 363.3 True x
10/6/1988 11:50    2.49 13 198.00 1524 818.1 True x
10/6/1988 12:40    2.49 13 146.00 1524 603.0 True x
10/7/1988 09:30    2.48 10 139.00 1511 567.5 True x
10/14/1988 08:00    2.35 118.00 1350 430.1 True x
10/21/1988 13:00    2.32 10 122.00 1301 429.1 True x
10/27/1988 09:00    2.62 105.00 1692 482.7 True x
11/11/1988 15:00    2.76 29.00 1879 151.0 True x
11/17/1988 11:05    3.14 50.00 2418 330.9 True x
11/17/1988 12:10    3.14 78.00 2418 512.6 True x
11/19/1988 15:00    3.60 50.00 3128 422.7 True x
11/23/1988 15:00    3.30 27.00 2658 198.9 True x
12/1/1988 15:00    3.67 42.00 3241 368.6 True x
12/8/1988 15:00    3.63 69.00 3176 593.7 True x
12/15/1988 15:00    3.13 11.00 2403 75.5 True x
12/22/1988 15:00    3.11 8.00 2374 53.6 True x
1/5/1989 15:00    3.28 14.00 2627 104.9 True x
1/13/1989 09:00    3.26 70.00 2597 496.9 True x
1/19/1989 11:00    2.85 42.00 2002 231.0 True x
1/26/1989 14:00    3.67 29.00 3241 257.3 True x
2/2/1989 10:00    4.37 142.00 4443 1,707.8 True x
2/10/1989 09:25    4.77 14.00 5164 205.4 True x
2/16/1989 13:00    3.53 99.00 3016 808.8 True x
3/20/1989 10:30    6.60 136.00 8899 3,277.3 True x
3/20/1989 12:00    6.61 126.00 8919 3,050.6 True x
3/20/1989 15:00    6.58 121.00 8859 2,896.6 True x
3/27/1989 08:00    5.35 59.00 6322 1,008.1 True x
3/30/1989 10:00    5.88 57.00 7425 1,159.7 True x
4/7/1989 13:00    5.29 10 70.00 6201 1,187.6 True x
4/13/1989 15:00    4.85 45.00 5317 648.5 True x
4/20/1989 15:00    3.79 14 51.00 3438 473.7 True x
4/28/1989 15:00    3.90 14 44.00 3622 431.7 True x
5/4/1989 13:00    3.23 15 124.00 2552 859.2 True x
5/8/1989 09:30    3.28 13 33.00 2627 239.8 True x
5/9/1989 10:00    3.65 21.00 3208 182.8 True x
5/15/1989 10:00    2.89 55.00 2058 309.4 True x
5/19/1989 10:00    3.20 13 51.00 2507 345.8 True x
5/26/1989 15:00    2.51 21 133.00 1536 553.3 True x
6/1/1989 15:00    2.50 21 128.00 1536 531.1 True x
6/3/1989 14:00    3.08 24 47.00 2330 300.8 True x
6/5/1989 09:00    2.69 22 85.00 1784 413.0 True x
6/5/1989 10:15    2.77 22 95.00 1892 485.6 True x
6/15/1989 09:00    3.19 17 37.00 2492 250.1 True x
6/22/1989 14:00    2.88 23 50.00 2044 277.8 True x
6/30/1989 15:00    2.02 25 79.00 967 207.3 True x
7/6/1989 12:00    2.05 28 47.00 989 126.0 True x
7/14/1989 13:00    1.88 24 64.00 818 142.9 True x
7/21/1989 09:00    2.53 19 54.00 1562 230.0 True x
7/28/1989 13:00    2.50 19 41.00 1536 172.9 True x
8/4/1989 10:00    2.78 25 41.00 1906 215.2 True x
8/22/1989 09:00    2.48 25 33.00 1511 137.8 True x
8/22/1989 10:15    2.46 25 29.00 1486 117.3 True x
9/22/1989 10:30    6.06 19 169.00 7813 3,569.5 True x
10/13/1989 08:00    2.18 13 51.00 1148 160.3 True x
10/13/1989 08:30    2.21 13 36.00 1183 115.0 True x
10/13/1989 09:20    2.37 13 42.00 1374 155.9 True x
10/20/1989 14:00    2.73 20.00 1838 99.4 True x
10/27/1989 15:00    2.30 52.00 1399 198.5 True x
11/3/1989 14:00    2.45 36.00 1473 146.1 True x
11/6/1989 09:30    2.55 25.00 1588 109.4 True x
11/6/1989 10:15    2.55 23.00 1588 102.2 True x
11/9/1989 15:00    2.48 23.00 1511 97.3 True x
11/17/1989 15:00    2.41 25.00 1423 96.7 True x
12/1/1989 15:00    2.67 32.00 1758 156.4 True x
12/7/1989 15:00    2.33 47.00 1325 169.7 True x
12/15/1989 09:00    3.15 83.00 2433 550.9 True x
12/29/1989 15:00    2.44 56.00 1461 221.7 True x
1/12/1990 10:00    2.69 21.00 1784 104.7 True x
1/12/1990 12:00    2.31 18.00 1301 64.7 True x
1/19/1990 12:00    3.00 15.00 2214 91.3 True x
1/30/1990 14:30    3.70 23.00 3290 210.1 True x
2/9/1990 15:00    3.68 42.00 3257 374.7 True x
2/16/1990 13:00    2.85 18.00 2002 99.3 True x
2/23/1990 13:00    3.03 14.00 2257 87.2 True x
3/2/1990 13:00    2.68 19.00 1771 93.0 True x
3/9/1990 15:00    5.35 219.00 6322 3,748.9 True x
3/14/1990 09:30    7.47 12 181.00 10670 5,234.5 True x
3/14/1990 10:45    7.57 12 155.00 10880 4,558.2 True x
3/16/1990 13:00    7.91 236.00 11600 7,399.1 True x
3/23/1990 13:00    6.56 107.00 8820 2,562.8 True x
3/29/1990 15:00    6.02 94.00 7726 1,972.8 True x
4/6/1990 12:00    5.02 85.00 5645 1,305.2 True x
4/12/1990 12:00    4.59 60.00 4845 795.0 True x
4/19/1990 12:00    4.18 10 80.00 4104 887.9 True x
4/26/1990 11:00    3.75 20 69.00 3372 634.1 True x
5/7/1990 09:00    3.40 15 52.00 2812 400.7 True x
5/7/1990 10:00    3.40 15 54.00 2812 411.1 True x
5/7/1990 15:00    3.31 16 94.00 2673 685.4 True x
5/11/1990 15:00    4.26 14 69.00 4246 793.4 True x
5/18/1990 15:00    4.65 15 42.00 4957 568.0 True x
5/25/1990 11:00    5.06 15 90.00 5724 1,392.0 True x
6/1/1990 15:00    4.47 20 56.00 4624 711.1 True x
6/8/1990 15:00    4.01 19 38.00 3809 392.7 True x
6/15/1990 15:00    3.49 24 59.00 2953 472.0 True x
6/18/1990 09:00    3.47 24 96.00 2921 764.8 True x
6/18/1990 10:00    3.47 24 91.00 2921 719.7 True x
6/22/1990 13:00    3.14 20 126.00 2418 827.6 True x
7/6/1990 15:00    7.41 24 209.00 10550 5,977.6 True x
7/13/1990 13:00    5.46 20 98.00 6546 1,739.1 True x
7/20/1990 15:00    4.13 24 131.00 4017 1,428.0 True x
7/27/1990 14:30    2.86 24 75.00 2016 413.4 True x
8/3/1990 14:00    2.78 24 136.00 1906 700.7 True x
8/9/1990 09:00    2.48 23 104.00 1511 427.2 True x
8/9/1990 10:00    2.48 23 90.00 1511 369.2 True x
8/10/1990 15:00    2.51 23 35.00 1536 146.0 True x
8/17/1990 15:00    2.21 21 42.00 1183 135.1 True x
8/24/1990 15:00    5.77 24 174.00 7191 3,379.4 True x
8/31/1990 14:00    5.06 21 15.00 5724 234.2 True x
9/7/1990 14:00    3.11 24 167.00 2374 1,071.0 True x
9/14/1990 11:00    2.47 20 83.00 1498 339.2 True x
9/21/1990 13:30    2.81 11 75.00 1947 398.9 True x
9/28/1990 14:00    2.66 16 40.00 1744 190.1 True x
10/5/1990 15:00    2.39 16 42.00 1399 160.5 True x
10/12/1990 15:00    3.22 11 37.00 2537 255.2 True x
10/19/1990 15:00    2.80 11 37.00 1933 194.2 True x
10/26/1990 15:00    3.04 21.00 2272 131.9 True x
11/2/1990 15:00    2.32 12 33.00 1313 118.1 True x
12/7/1990 13:00    3.24 35.00 2395 228.0 True x
12/14/1990 11:30    3.67 16.00 3000 133.4 True x
12/21/1990 13:00    3.85 24.00 3265 213.3 True x
12/28/1990 10:00    4.94 85.00 5005 1,151.5 True x
1/14/1991 15:00    3.49 71.00 2742 528.9 True x
1/18/1991 10:30    3.23 101.00 2382 651.1 True x
1/25/1991 10:00    3.47 197.00 2714 1,447.6 True x
2/8/1991 14:30    3.74 31.00 3102 264.7 True x
2/15/1991 09:00    3.42 -1 12.00 2643 87.7 True x
2/22/1991 13:00    4.79 -1 104.00 4753 1,344.9 True x
3/1/1991 15:00    4.36 31.00 4051 339.6 True x
3/8/1991 13:00    7.10 48.00 9049 1,196.9 True x
3/15/1991 13:00    5.80 138.00 6528 2,449.2 True x
3/22/1991 14:00    6.50 87.00 78 18.6 True x
3/29/1991 08:00    7.62 246.00 10120 6,723.6 True x
4/5/1991 14:30    6.71 201.00 8266 4,488.5 True x
4/12/1991 15:00    6.62 101.00 8089 2,207.4 True x
4/19/1991 14:30    7.57 10 133.00 10020 3,601.4 True x
4/26/1991 13:30    6.42 13 81.00 7679 1,684.5 True x
5/3/1991 14:30    6.06 13 718.00 7012 13,609.7 True x
5/10/1991 14:30    5.51 15 85.00 6001 1,379.7 True x
5/17/1991 15:00    4.34 18 123.00 4020 1,338.5 True x
5/24/1991 14:30    3.74 19 230.00 3102 1,929.7 True x
5/31/1991 13:00    4.21 24 260.00 3815 2,683.1 True x
6/7/1991 14:30    3.49 21 245.00 2742 1,820.0 True x
6/14/1991 15:00    3.30 25 227.00 2478 1,522.3 True x
6/21/1991 13:00    4.39 25 201.00 4099 2,225.2 True x
6/28/1991 14:00    3.68 26 116.00 3015 950.9 True x
7/5/1991 08:30    3.18 23 124.00 2315 777.3 True x
7/12/1991 10:30    3.10 24 78.00 2208 465.5 True x
7/19/1991 14:00    2.52 27 83.00 1484 335.3 True x
7/26/1991 15:00    3.04 24 37.00 2129 213.0 True x
8/2/1991 14:30    2.85 25 46.00 1885 234.4 True x
8/9/1991 13:00    3.29 21 53.00 2643 383.7 True x
8/16/1991 15:00    2.65 24 86.00 1731 405.1 True x
8/23/1991 14:30    2.41 22 59.00 1423 230.1 True x
8/30/1991 13:00    2.13 26 78.00 1090 230.3 True x
9/6/1991 14:00    2.19 24 97.00 1159 304.2 True x
9/13/1991 15:00    2.59 22 111.00 1652 495.6 True x
9/20/1991 15:00    3.44 14 73.00 2874 570.1 True x
9/27/1991 14:00    3.07 12 41.00 2315 262.1 True x
10/4/1991 08:00    2.65 13 49.00 1731 231.1 True x
10/11/1991 13:00    3.18 13 47.00 2477 315.0 True x
10/18/1991 14:00    2.96 10 43.00 2157 250.8 True x
10/25/1991 15:00    3.24 13 53.00 2567 369.9 True x
11/1/1991 14:30    4.90 36.00 5432 540.0 True x
11/8/1991 14:00    4.92 41.00 5471 616.9 True x
11/15/1991 14:30    4.82 18.00 5278 264.4 True x
11/22/1991 14:30    5.75 29.00 7149 576.0 True x
11/27/1991 13:00    5.42 31.00 6464 556.3 True x
12/6/1991 14:30    5.95 117.00 7575 2,396.9 True x
12/13/1991 14:30    6.78 35.00 9260 875.2 True x
12/23/1991 14:00    5.80 13.00 7255 255.1 True x
12/30/1991 14:00    5.19 8.00 6000 144.5 True x
1/3/1992 14:30    4.95 11.00 5529 169.2 True x
1/10/1992 14:30    4.86 8.00 5355 122.7 True x
1/17/1992 14:00    4.50 -1 14.00 4679 177.4 True x
1/24/1992 10:00    4.60 -1 14.00 4864 185.5 True x
1/31/1992 14:30    4.06 13.00 3895 140.0 True x
2/7/1992 15:00    4.30 25.00 4317 302.0 True x
2/14/1992 14:00    3.55 43.00 3048 357.6 True x
2/21/1992 13:00    5.54 170.00 6711 3,088.6 True x
2/28/1992 14:00    5.49 85.00 6608 1,530.2 True x
3/6/1992 14:00    5.32 99.00 6261 1,679.4 True x
3/15/1992 13:00    6.09 38.00 7878 812.6 True x
3/22/1992 14:00    5.77 48.00 7191 940.5 True x
3/27/1992 15:00    5.88 51.00 7425 1,027.3 True x
4/3/1992 14:00    5.50 43.00 6628 771.6 True x
4/10/1992 14:30    5.00 39.00 5626 600.9 True x
4/17/1992 09:00    5.58 52.00 6793 966.0 True x
4/24/1992 14:30    6.32 56.00 8340 1,261.5 True x
5/1/1992 14:00    6.00 14 60.00 7683 1,253.5 True x
5/8/1992 14:30    5.38 15 51.00 6383 889.4 True x
5/15/1992 15:00    4.78 17 48.00 5202 683.7 True x
5/22/1992 14:00    3.97 21 90.00 3741 911.8 True x
5/29/1992 14:00    3.41 20 147.00 2827 1,123.0 True x
6/5/1992 15:00    3.07 20 157.00 2315 984.7 True x
6/12/1992 15:30    2.89 22 166.00 2058 924.1 True x
6/19/1992 14:00    2.81 20 212.00 1947 1,119.3 True x
6/26/1992 15:00    2.73 19 201.00 1838 999.7 True x
7/1/1992 13:00    2.61 20 117.00 1678 531.7 True x
7/10/1992 15:00    2.61 23 174.00 1678 790.7 True x
7/17/1992 15:00    4.25 22 125.00 4228 1,435.0 True x
7/24/1992 14:00    3.59 19 77.00 3112 651.6 True x
7/31/1992 15:00    3.34 20 71.00 2719 523.3 True x
8/7/1992 14:00    2.94 20 60.00 2128 348.2 True x
8/14/1992 14:30    3.13 18 46.00 2403 301.6 True x
8/21/1992 15:00    2.43 20 64.00 1448 253.0 True x
8/28/1992 14:30    2.70 20 56.00 1798 275.3 True x
9/4/1992 15:00    2.68 19 69.00 1771 330.8 True x
9/11/1992 15:00    2.96 18 71.00 2157 414.3 True x
9/18/1992 14:00    4.97 19 69.00 5567 1,042.2 True x
9/25/1992 14:30    4.71 15 55.00 5070 757.0 True x
10/2/1992 14:30    3.69 16 52.00 3487 490.2 True x
10/9/1992 14:00    3.12 12 55.00 2580 383.9 True x
10/16/1992 14:00    3.48 30.00 3144 256.4 True x
10/23/1992 13:00    3.36 10 25.00 2952 204.0 True x
10/30/1992 14:00    3.30 10 21.00 2858 165.9 True x
11/6/1992 14:30    4.05 44.00 4100 489.5 True x
11/10/1992 13:45    3.89 19.00 3824 201.2 True x
11/13/1992 13:00    4.26 23.00 4470 287.0 True x
11/20/1992 10:00    4.13 13.00 4240 153.1 True x
12/4/1992 10:30    5.32 20.00 6479 350.0 True x
12/11/1992 15:00    4.76 14.00 5390 205.1 True x
12/18/1992 14:30    6.64 65.00 9266 1,646.4 True x
12/23/1992 10:00    6.00 66.00 7878 1,416.4 True x
12/30/1992 14:30    5.97 21.00 7815 462.6 True x
1/8/1993 12:00    6.88 88.00 9764 2,327.6 True x
1/22/1993 14:00    5.08 32.00 6005 521.5 True x
1/29/1993 15:00    5.36 76.00 6559 1,357.4 True x
2/5/1993 14:00    5.20 64.00 6241 1,081.4 True x
2/16/1993 09:00    4.22 18.00 4399 215.9 True x
2/19/1993 11:30    3.56 25.00 3273 222.6 True x
2/26/1993 13:00    3.72 67.00 3537 640.6 True x
3/5/1993 10:30    6.57 248.00 9111 6,111.3 True x
3/12/1993 11:00    6.75 181.00 9111 4,460.2 True x
3/19/1993 13:30    5.64 47.00 7127 920.0 True x
3/26/1993 14:00    11.34 122.00 19630 6,494.2 True x
4/2/1993 13:30    11.70 57.00 20480 3,204.4 True x
4/9/1993 10:00    10.21 63.00 16990 2,901.9 True x
4/9/1993 14:15    10.20 61.00 16970 2,831.8 True x
4/16/1993 14:30    10.36 123.00 17330 5,795.1 True x
4/23/1993 15:00    12.42 11 60.00 22220 3,634.4 True x
4/30/1993 14:00    11.08 11 38.00 19010 1,980.7 True x
5/12/1993 13:20    9.48 22 33.00 15330 1,378.3 True x
5/12/1993 14:10    9.47 22 30.00 15310 1,279.0 True x
5/21/1993 15:00    7.31 17 41.00 10650 1,201.1 True x
5/28/1993 15:00    6.66 18 41.00 9311 1,033.0 True x
6/4/1993 15:00    6.69 15 46.00 9378 1,171.8 True x
6/11/1993 15:00    8.88 22 60.00 14000 2,292.9 True x
6/18/1993 15:00    9.09 24 69.00 14460 2,708.3 True x
6/25/1993 15:00    9.42 25 76.00 15200 3,134.6 True x
7/2/1993 15:00    11.52  104.00 20050 5,643.6 True x
7/8/1993 11:20    9.77 24 76.00 15990 3,283.7 True x
7/9/1993 14:00    9.98 24 68.00 16460 3,041.6 True x
7/16/1993 15:00    11.78 24 66.00 20670 3,728.6 True x
7/23/1993 14:30    9.75 24 90.00 15940 3,910.9 True x
7/30/1993 15:00    8.49 26 76.00 13150 2,730.0 True x
8/6/1993 15:00    7.59 22 89.00 11230 2,716.8 True x
8/13/1993 15:00    6.65 25 112.00 9289 2,819.8 True x
8/20/1993 09:30    6.51 24 75.00 8979 1,839.1 True x
8/27/1993 14:45    5.79 27 94.00 7437 1,902.8 True x
9/3/1993 15:15    5.81 23 95.00 7479 1,932.7 True x
9/10/1993 15:00    4.71 19 149.00 5296 2,139.9 True x
9/16/1993 12:50    5.81 16 101.00 7479 2,049.8 True x
9/17/1993 14:45    6.12 18 76.00 8133 1,688.0 True x
9/24/1993 14:30    5.89 17 62.00 7646 1,283.2 True x
10/1/1993 14:30    6.82 18 60.00 9104 1,478.8 True x
10/8/1993 14:30    5.70 17 57.00 6933 1,085.5 True x
10/15/1993 15:00    5.20 15 52.00 6016 856.7 True x
10/22/1993 15:00    4.85 13 58.00 5394 852.4 True x
10/29/1993 15:00    4.57 58.00 4909 771.3 True x
11/5/1993 15:00    4.54 13 40.00 4858 525.8 True x
11/12/1993 14:00    4.30 53.00 4453 647.0 True x
11/19/1993 14:30    4.44 19.00 4688 244.4 True x
11/24/1993 13:00    4.38 63.00 4587 790.2 True x
12/3/1993 14:45    4.79 38.00 5289 544.1 True x
12/10/1993 14:30    4.67 67.00 5081 931.8 True x
12/17/1993 10:00    4.39 85.00 4604 1,065.4 True x
12/24/1993 07:30    4.38 67.00 4587 833.8 True x
1/11/1994 14:00    5.57 120.00 6692 2,176.3 True x
1/21/1994 11:00    5.74 130.00 7008 2,467.0 True x
1/28/1994 14:00    4.55 129.00 4875 1,701.0 True x
2/4/1994 14:00    4.59 156.00 4943 2,084.7 True x
2/11/1994 13:30    4.54 128.00 4858 1,687.6 True x
2/18/1994 13:30    4.32 109.00 4487 1,331.8 True x
3/4/1994 13:30    7.56 118.00 10620 3,405.0 True x
3/11/1994 14:30    8.96 51.00 13640 1,903.3 True x
3/18/1994 14:00    7.33 59.00 10140 1,627.3 True x
3/25/1994 14:15    7.16 30.00 9792 818.3 True x
4/1/1994 09:00    6.24 36.00 7961 774.7 True x
4/8/1994 15:00    5.52 51.00 6599 926.1 True x
4/15/1994 15:00    5.17 12 40.00 5962 643.9 True x
4/22/1994 15:00    4.68 16 41.00 5098 569.4 True x
4/29/1994 15:00    4.54 14 59.00 4858 775.8 True x
5/6/1994 15:00    4.26 15 35.00 4387 417.1 True x
5/13/1994 15:00    3.87 20 36.00 3752 370.4 True x
5/20/1994 14:00    3.44 21 66.00 3082 550.3 True x
5/27/1994 15:00    3.15 20 94.00 2651 673.6 True x
6/3/1994 15:00    3.18 23 138.00 2695 1,007.6 True x
6/10/1994 14:30    2.71 23 178.00 2030 978.7 True x
6/17/1994 14:30    2.91 30 148.00 2307 924.9 True x
6/24/1994 15:00    3.65 23 115.00 3405 1,064.1 True x
7/1/1994 14:00    3.68 26 118.00 3452 1,101.0 True x
7/8/1994 14:30    4.70 28 71.00 5133 985.7 True x
7/15/1994 14:30    4.33 24 58.00 4503 706.6 True x
7/23/1994 14:00    4.31 23 67.00 4470 810.7 True x
7/29/1994 13:30    3.66 24 79.00 3421 738.5 True x
8/5/1994 15:00    3.93 25 61.00 3848 639.1 True x
8/12/1994 15:00    3.44 20 67.00 3082 559.9 True x
8/19/1994 14:30    4.12 25 59.00 4156 669.3 True x
8/26/1994 15:00    4.35 26 94.00 4537 1,157.6 True x
9/2/1994 15:00    2.98 20 171.00 2406 1,116.3 True x
9/9/1994 14:00    3.21 21 135.00 2739 1,003.2 True x
9/16/1994 14:30    2.95 25 126.00 2364 809.0 True x
9/23/1994 10:30    3.09 20 81.00 2564 565.6 True x
9/30/1994 15:00    4.07 18 87.00 4074 958.4 True x
10/7/1994 13:30    3.67 16 103.00 3436 959.0 True x
10/14/1994 13:30    3.25 15 59.00 2798 448.1 True x
10/21/1994 14:30    3.26 17 85.00 2813 652.8 True x
10/28/1994 14:30    3.29 11 20.00 2857 154.7 True x
11/4/1994 14:30    3.07 11 128.00 2535 880.5 True x
11/11/1994 14:30    3.75 10 100.00 3562 966.5 True x
11/18/1994 13:00    3.52 10 25.00 3204 219.9 True x
11/23/1994 14:30    3.52 108.00 3204 936.1 True x
12/2/1994 15:00    3.99 45.00 3944 487.9 True x
12/9/1994 10:00    3.77 71.00 3593 690.2 True x
12/16/1994 11:00    3.66 112.00 3421 1,042.1 True x
12/23/1994 08:00    3.51 111.00 3189 959.7 True x
12/31/1994 14:00    3.85 96.00 3720 965.4 True x
1/6/1995 13:45    4.15 99.00 4205 1,131.1 True x
1/13/1995 15:00    3.57 102.00 3281 910.6 True x
1/24/1995 14:30    3.69 80.00 3467 757.3 True x
1/27/1995 15:00    3.72 74.00 3514 711.0 True x
2/3/1995 13:00    3.67 44.00 3436 408.7 True x
2/10/1995 14:30    3.47 72.00 3128 613.6 True x
2/17/1995 13:30    3.09 86.00 2564 597.7 True x
2/24/1995 15:00    4.13 38.00 4172 432.8 True x
3/3/1995 14:45    3.36 13.00 2962 109.9 True x
3/10/1995 15:00    3.26 129.00 2813 986.0 True x
3/17/1995 15:00    4.46 13 87.00 4722 1,114.8 True x
3/24/1995 15:00    4.98 65.00 5623 997.9 True x
3/31/1995 14:30    4.87 52.00 5429 776.5 True x
4/7/1995 15:15    4.36 10 67.00 4554 829.2 True x
4/14/1995 09:00    5.02 118.00 5694 1,816.7 True x
4/21/1995 14:00    5.19 11 75.00 5998 1,227.9 True x
4/28/1995 15:00    5.91 13 79.00 7329 1,579.2 True x
5/4/1995 13:00    5.45 15 101.00 6470 1,774.2 True x
5/12/1995 15:15    6.82 16 121.00 9104 2,989.6 True x
5/19/1995 15:00    6.54 17 175.00 8547 4,046.1 True x
5/26/1995 15:00    5.49 19 125.00 6544 2,223.2 True x
6/2/1995 08:00    5.70 20 156.00 6933 2,921.4 True x
6/9/1995 10:00    4.61 19 237.00 4978 3,195.3 True x
6/16/1995 13:30    4.17 25 227.00 4238 2,608.8 True x
6/23/1995 15:00    3.27 28 253.00 2828 1,937.7 True x
6/30/1995 15:00    3.42 25 227.00 3052 1,873.2 True x
7/7/1995 08:00    3.37 21 199.00 2977 1,605.5 True x
7/14/1995 08:00    3.04 28 189.00 2492 1,272.5 True x
7/21/1995 14:30    3.18 27 131.00 2695 954.1 True x
7/28/1995 14:15    3.21 27 95.00 2739 703.9 True x
8/4/1995 15:00    3.09 27 117.00 2564 810.7 True x
8/11/1995 14:00    3.87 28 64.00 3752 652.5 True x
8/18/1995 14:30    4.73 28 61.00 5185 866.5 True x
8/25/1995 15:00    4.80 27 53.00 5306 766.7 True x
8/31/1995 14:30    4.24 28 45.00 4353 532.9 True x
9/8/1995 13:00    4.05 20 51.00 4042 563.2 True x
9/15/1995 08:00    3.41 18 52.00 3037 432.2 True x
9/22/1995 15:00    3.39 15 34.00 3007 277.5 True x
9/29/1995 15:00    2.97 18 79.00 2392 512.2 True x
10/6/1995 09:30    3.74 15 40.00 3546 390.2 True x
10/13/1995 10:00    4.83 17 42.00 5359 611.9 True x
10/20/1995 14:00    3.88 13 49.00 3768 502.3 True x
10/27/1995 14:00    4.49 11 34.00 4773 441.3 True x
11/3/1995 13:00    5.59 48.00 6729 872.8 True x
11/10/1995 14:00    5.52 43.00 6599 769.2 True x
11/17/1995 15:00    5.45 46.00 6470 815.0 True x
11/22/1995 13:00    5.25 20.00 6106 334.2 True x
12/1/1995 14:00    4.88 20.00 5446 298.1 True x
12/8/1995 09:30    4.40 75.00 4621 941.1 True x
12/15/1995 13:00    6.31 86.00 8097 1,882.8 True x
12/22/1995 13:00    4.15 95.00 4205 1,082.9 True x
12/29/1995 13:30    3.59 133.00 3312 1,194.7 True x
1/5/1996 14:00    3.49 144.00 3159 1,229.3 True x
1/12/1996 11:00    3.38 125.00 2992 1,009.8 True x
1/19/1996 11:30    4.39 65.00 4604 820.3 True x
1/26/1996 11:30    5.21 24.00 6034 392.3 True x
2/9/1996 13:30    6.95 17.00 9366 442.1 True x
2/16/1996 11:30    6.66 47.00 8785 1,119.1 True x
2/23/1996 11:30    4.78 13.00 5271 189.3 True x
3/1/1996 15:15    5.31 35.00 6215 591.2 True x
3/8/1996 11:30    4.86 37.00 5411 548.1 True x
3/15/1996 15:00    4.60 35.00 4960 472.5 True x
3/22/1996 15:00    4.48 19.00 4756 255.1 True x
3/29/1996 15:00    4.60 21.00 4960 287.6 True x
4/4/1996 11:00    4.62 38.00 4995 515.5 True x
4/12/1996 14:00    4.23 13 48.00 4337 571.3 True x
4/19/1996 13:00    4.68 14 51.00 5098 711.1 True x
4/26/1996 14:00    4.80 13 48.00 5306 701.8 True x
5/3/1996 10:00    5.19 11 53.00 5998 863.2 True x
5/10/1996 14:00    5.50 13 49.00 6562 869.6 True x
5/17/1996 15:00    5.93 17 60.00 7367 1,207.1 True x
5/24/1996 13:30    6.47 17 104.00 8410 2,373.0 True x
5/31/1996 13:00    7.48 16 189.00 10450 5,333.9 True x
6/7/1996 13:30    9.11 17 739.00 13970 27,904.6 True x
6/14/1996 15:00    8.30 24 83.00 12190 2,735.7 True x
6/28/1996 13:00    9.49 25 102.00 14830 4,109.4 True x
7/3/1996 11:30    8.11 26 97.00 11780 3,097.8 True x
7/12/1996 13:30    6.25 22 105.00 7980 2,273.8 True x
7/19/1996 15:00    10.24 23 221.00 16540 9,903.2 True x
7/26/1996 15:15    7.64 22 69.00 10790 2,021.6 True x
8/2/1996 15:15    5.47 22 256.00 6507 4,501.3 True x
8/9/1996 15:00    5.64 25 118.00 6821 2,190.4 True x
8/16/1996 15:00    4.65 22 92.00 5046 1,261.0 True x
8/23/1996 13:00    4.08 24 114.00 4090 1,263.5 True x
8/30/1996 10:00    3.89 21 95.00 3784 974.5 True x
9/6/1996 14:00    3.45 24 87.00 3098 735.5 True x
9/13/1996 13:00    3.18 18 137.00 2695 1,002.4 True x
9/20/1996 14:30    3.35 17 59.00 2947 474.7 True x
9/27/1996 14:45    3.48 15 57.00 3143 486.9 True x
10/4/1996 14:30    3.16 14 88.00 2666 636.5 True x
10/11/1996 14:00    3.24 11 82.00 2783 619.9 True x
10/18/1996 14:00    3.29 14 51.00 2857 395.5 True x
10/25/1996 13:00    3.64 12 29.00 3390 274.3 True x
11/1/1996 14:30    4.69 28.00 5115 393.6 True x
11/8/1996 14:00    4.16 22.00 4221 256.5 True x
11/15/1996 13:00    3.71 45.00 3499 428.3 True x
11/22/1996 13:00    3.72 86.00 3514 816.3 True x
11/27/1996 14:00    3.09 116.00 2564 803.4 True x
12/6/1996 14:30    3.87 9.00 3752 97.5 True x
12/13/1996 13:30    3.92 10.00 3832 105.6 True x
12/20/1996 09:45    3.79 48.00 3625 472.5 True x
12/27/1996 13:30    4.57 112.00 4909 1,491.9 True x
1/3/1997 14:15    3.95 14.00 3880 149.2 True x
1/10/1997 14:30    4.39 14.00 4604 186.2 True x
1/28/1997 12:00    6.31 26.00 8097 571.5 True x
1/31/1997 13:30    5.31 18.00 6215 302.8 True x
2/7/1997 14:30    4.53 17.00 4841 227.1 True x
2/14/1997 14:00    3.68 7.00 3452 69.6 True x
2/21/1997 14:00    9.53 514.00 14920 20,744.2 True x
2/28/1997 09:00    10.26 142.00 16610 6,388.0 True x
3/7/1997 15:00    8.79 113.00 13260 4,077.5 True x
3/14/1997 14:00    7.96 68.00 11460 2,114.7 True x
3/21/1997 15:00    6.41 63.00 8292 1,418.3 True x
3/28/1997 09:30    6.19 58.00 7864 1,241.1 True x
4/18/1997 08:00    5.80 56.00 7121 1,077.9 True x
4/25/1997 15:00    5.49 15 45.00 6544 801.4 True x
5/2/1997 08:00    5.21 14 35.00 6034 570.4 True x
5/9/1997 09:30    5.62 14 31.00 6784 582.7 True x
5/16/1997 09:30    5.02 13 34.00 5694 536.4 True x
5/23/1997 15:00    4.38 19 82.00 4587 1,020.2 True x
5/30/1997 15:00    3.96 16 119.00 3896 1,259.5 True x
6/6/1997 14:00    3.57 21 138.00 3281 1,226.3 True x
6/13/1997 14:30    3.42 24 152.00 3052 1,254.3 True x
6/20/1997 14:30    5.65 24 155.00 6840 2,870.6 True x
6/27/1997 14:00    6.33 27 103.00 8136 2,276.3 True x
7/3/1997 13:00    5.11 25 111.00 5854 1,763.4 True x
7/11/1997 14:30    4.90 25 70.00 5481 1,048.9 True x
7/18/1997 13:00    4.35 28 64.00 4537 795.0 True x
7/25/1997 14:30    4.66 25 70.00 5064 960.1 True x
8/1/1997 14:30    4.51 26 86.00 4807 1,117.0 True x
8/8/1997 12:30    4.02 25 61.00 3993 664.7 True x
8/15/1997 09:00    3.90 21 50.00 3800 522.4 True x
8/22/1997 15:00    3.77 23 57.00 3593 557.9 True x
8/29/1997 13:30    4.02 25 53.00 3993 571.5 True x
9/5/1997 14:00    3.79 20 41.00 3625 403.1 True x
9/12/1997 14:00    3.21 21 41.00 2739 307.0 True x
9/19/1997 13:15    3.80 22 57.00 3640 566.2 True x
9/26/1997 13:30    3.49 19 52.00 3159 446.3 True x
10/3/1997 13:00    3.06 20 44.00 2521 304.6 True x
10/10/1997 14:00    2.94 20 67.00 2350 425.3 True x
10/17/1997 11:30    2.78 13 54.00 2126 314.4 True x
10/24/1997 13:00    3.05 97.00 2506 657.7 True x
11/7/1997 11:15    3.95 10 20.00 3880 210.7 True x
11/14/1997 13:30    3.20 56.00 2724 418.5 True x
11/21/1997 13:00    3.14 88.00 2637 627.5 True x
11/26/1997 15:00    3.23 48.00 2768 359.2 True x
12/5/1997 10:00    3.42 11.00 3052 91.4 True x
12/12/1997 12:00    3.35 78.00 2947 627.5 True x
1/12/1998 10:25    3.86 47.00 3736 474.1 True x
1/19/1998 10:45    3.82 14.00 3672 142.3 True x
1/23/1998 11:15    3.51 90.00 3189 776.8 True x
1/30/1998 09:15    3.41 96.00 3037 788.7 True x
2/6/1998 13:30    3.66 103.00 3421 955.9 True x
2/13/1998 13:15    4.24 64.00 4353 758.9 True x
2/20/1998 13:30    4.58 83.00 4926 1,106.8 True x
2/27/1998 13:00    4.86 32.00 5411 481.8 True x
3/6/1998 13:30    5.28 42.00 6160 707.1 True x
3/13/1998 14:15    4.84 57.00 5376 839.8 True x
3/20/1998 13:00    5.29 39.00 6178 656.5 True x
3/27/1998 15:00    5.63 14 58.00 6803 1,070.8 True x
4/3/1998 13:30    7.90 10 151.00 11330 4,628.7 True x
4/10/1998 09:50    9.14 121.00 14040 4,611.2 True x
4/17/1998 13:15    9.07 12 108.00 13880 4,051.1 True x
4/24/1998 14:30    9.06 15 73.00 13860 2,758.6 True x
5/1/1998 10:40    7.87 14 65.00 11270 2,006.6 True x
5/8/1998 13:50    7.84 16 80.00 11210 2,431.2 True x
5/15/1998 13:00    7.07 23 50.00 9609 1,306.3 True x
5/22/1998 15:15    5.67 20 81.00 6877 1,506.1 True x
5/29/1998 13:00    5.49 24 86.00 6544 1,527.9 True x
6/5/1998 13:00    4.77 18 140.00 5254 1,999.0 True x
6/12/1998 14:30    4.51 21 180.00 4807 2,341.1 True x
6/19/1998 13:30    5.71 24 297.00 6952 5,590.9 True x
6/26/1998 14:00    8.04 28 340.00 11630 10,705.1 True x
7/2/1998 13:30    6.85 26 112.00 9164 2,777.4 True x
7/7/1998 13:00    6.61 24 100.00 8686 2,367.5 True x
7/10/1998 13:00    6.39 26 115.00 8253 2,583.1 True x
7/14/1998 13:30    5.34 26 77.00 6269 1,315.9 True x
7/17/1998 14:00    4.84 27 145.00 5376 2,113.4 True x
7/22/1998 09:01    4.87 26 108.00 5429 1,585.5 True x
7/24/1998 15:15    4.66 26 113.00 5064 1,556.0 True x
7/31/1998 14:00    3.47 24 194.00 3128 1,643.5 True x
8/21/1998 14:00    4.17 26 77.00 4238 890.2 True x
8/28/1998 13:45    4.04 25 70.00 4025 764.6 True x
9/4/1998 15:00    3.67 24 66.00 3436 621.5 True x
9/11/1998 14:00    3.64 23 86.00 3390 795.7 True x
9/18/1998 13:30    4.52 23 113.00 4824 1,481.1 True x
9/25/1998 13:30    3.56 19 110.00 3266 970.5 True x
10/2/1998 13:15    3.34 17 137.00 2932 1,092.3 True x
10/9/1998 13:45    5.01 16 63.00 5676 976.6 True x
10/16/1998 14:00    4.28 16 40.00 4420 487.0 True x
10/23/1998 13:00    5.21 12 46.00 6034 758.2 True x
10/30/1998 13:15    4.68 14 57.00 5098 790.9 True x
11/6/1998 10:15    3.97 23.00 3912 247.3 True x
11/13/1998 13:30    5.17 51.00 5962 827.1 True x
11/20/1998 14:00    4.51 34.00 4807 442.6 True x
11/25/1998 11:00    4.49 27.00 4773 355.1 True x
12/4/1998 13:45    4.24 12 52.00 4353 618.2 True x
12/11/1998 13:15    4.22 19.00 4320 226.8 True x
12/18/1998 13:30    4.10 16.00 4123 186.2 True x
12/24/1998 10:15    3.48 68.00 3143 582.9 True x
12/31/1998 10:20    3.89 143.00 3784 1,469.2 True x
1/22/1999 10:10    4.37 81.00 4570 1,008.1 True x
1/29/1999 10:30    5.77 22.00 7065 434.6 True x
2/5/1999 11:15    6.19 39.00 7864 836.6 True x
2/12/1999 13:10    6.03 46.00 7557 957.0 True x
2/19/1999 13:15    6.05 31.00 7595 644.4 True x
2/26/1999 13:15    5.35 21.00 6287 366.4 True x
3/5/1999 14:15    5.03 20.00 5711 308.7 True x
3/12/1999 13:00    4.50 20.00 4790 267.7 True x
3/19/1999 13:30    4.68 10 28.00 5098 387.1 True x
3/26/1999 14:30    4.29 10 41.00 4437 491.8 True x
4/2/1999 13:15    3.86 15 68.00 3736 692.6 True x
4/9/1999 13:00    5.65 13 85.00 6840 1,575.2 True x
4/16/1999 13:30    6.38 12 73.00 8233 1,625.7 True x
4/23/1999 14:20    8.57 11 324.00 12780 11,199.9 True x
4/30/1999 13:30    9.57 15 101.00 15010 4,132.7 True x
5/4/1999 09:59    8.80 17 79.00 13280 2,851.8 True x
5/7/1999 14:30    6.65 16 87.00 8765 2,059.7 True x
5/14/1999 12:30    6.85 17 79.00 9164 1,966.6 True x
5/21/1999 14:00    8.51 20 130.00 12650 4,464.6 True x
5/28/1999 13:30    8.00 21 59.00 11550 1,850.5 True x
6/4/1999 13:30    6.59 20 184.00 8646 4,314.9 True x
6/11/1999 13:00    6.48 26 149.00 8429 3,398.7 True x
6/18/1999 14:00    7.93 21 73.00 11400 2,254.1 True x
6/25/1999 13:30    6.40 26 119.00 8272 2,677.9 True x
7/2/1999 13:00    5.27 25 151.00 6142 2,511.3 True x
7/9/1999 13:00    4.54 27 144.00 4858 1,896.0 True x
7/23/1999 10:00    5.28 28 92.00 6160 1,538.7 True x
7/30/1999 09:00    5.39 30 81.00 6360 1,406.9 True x
8/6/1999 13:00    5.32 26 77.00 6233 1,303.7 True x
8/13/1999 14:00    5.23 24 60.00 6070 998.4 True x
8/19/1999 14:00    4.85 23 52.00 5394 763.2 True x
9/3/1999 09:00    3.86 23 69.00 3736 696.9 True x
9/10/1999 13:15    2.94 20 158.00 2350 1,002.9 True x
9/17/1999 14:00    3.33 19 57.00 2917 454.0 True x
9/24/1999 08:30    3.12 16 103.00 2607 729.9 True x
10/1/1999 11:30    4.41 15 42.00 4638 528.6 True x
10/8/1999 13:30    3.98 15 38.00 3928 404.3 True x
10/15/1999 13:15    3.50 15 44.00 3174 383.3 True x
10/22/1999 13:00    3.89 11 28.00 3784 286.3 True x
10/29/1999 10:15    3.51 11 23.00 3189 205.0 True x
11/5/1999 11:30    3.37 10 127.00 2977 1,021.4 True x
11/12/1999 14:00    3.36 11 124.00 2962 995.3 True x
11/19/1999 11:45    3.48 10 96.00 3143 818.1 True x
11/26/1999 13:35    3.61 112.00 3343 1,017.5 True x
12/3/1999 08:00    3.75 77.00 3562 741.3 True x
12/10/1999 10:30    4.26 59.00 4387 709.5 True x
12/17/1999 13:20    4.11 28.00 4139 318.2 True x
12/27/1999 13:00    4.27 108.00 4403 1,291.9 True x
1/3/2000 14:00    3.30 98.00 2872 764.8 True x
1/7/2000 13:00    3.34 97.00 2932 770.1 True x
1/14/2000 10:20    3.42 100.00 3052 825.1 True x
1/21/2000 13:30    3.28 112.00 2842 860.5 True x
1/28/2000 11:30    4.09 132.00 4107 1,467.0 True x
2/4/2000 11:45    3.14 121.00 2637 861.8 True x
2/11/2000 13:30    3.16 116.00 2666 837.2 True x
2/17/2000 11:00    3.17 103.00 2680 748.5 True x
2/25/2000 13:00    5.53 88.00 6618 1,576.2 True x
3/3/2000 13:30    6.52 80.00 8508 1,852.7 True x
3/10/2000 13:00    5.14 10 52.00 5908 839.6 True x
3/17/2000 11:00    4.70 46.00 5133 646.8 True x
3/24/2000 13:00    4.40 10 45.00 4621 571.0 True x
3/31/2000 13:30    4.00 13 57.00 3960 611.8 True x
4/7/2000 13:00    3.90 10 41.00 3800 420.8 True x
4/14/2000 13:30    3.35 14 125.00 2947 995.1 True x
4/21/2000 10:30    5.81 12 264.00 7140 5,101.3 True x
5/7/2000 12:00    4.41 23 65.00 4638 816.3 True x
5/21/2000 08:00    7.33 14 100.00 10140 2,747.2 True x
5/28/2000 07:30    7.38 17 170.00 10240 4,711.8 True x
6/3/2000 19:00    11.87 19 92.00 20480 5,107.0 True x
6/13/2000 06:30    12.23 20 77.00 21380 4,480.1 True x
6/18/2000 06:30    11.43 20 64.00 19400 3,382.5 True x
6/26/2000 07:30    8.03 22 54.00 11610 1,719.8 True x
7/3/2000 07:15    7.58 23 238.00 10660 6,869.5 True x
7/5/2000 15:26    6.93 24 105.00 9326 2,668.3 True x
7/5/2000 16:03    6.93  107.00 9326 2,711.0 True x
7/9/2000 07:45    6.29 24 193.00 8058 4,208.2 True x
7/19/2000 07:30    5.44 24 91.00 6452 1,602.2 True x
7/27/2000 11:30    4.13 25 104.00 4172 1,182.6 True x
8/3/2000 07:30    4.44 22 89.00 4688 1,138.1 True x
8/8/2000 09:30    5.12 24 106.00 5872 1,690.2 True x
8/13/2000 10:00    4.25 24 109.00 4370 1,287.3 True x
8/23/2000 10:15    3.89 22 89.00 3784 911.4 True x
8/28/2000 09:30    3.78 22 104.00 3609 1,020.6 True x
9/8/2000 11:30    3.45 23 129.00 3098 1,084.8 True x
9/15/2000 10:00    5.02 19 90.00 5694 1,398.6 True x
9/25/2000 11:00    5.93 15 170.00 7367 3,381.6 True x
10/3/2000 10:30    4.51 17 59.00 4807 776.3 True x
10/8/2000 08:00    4.11 11 44.00 4139 493.7 True x
10/16/2000 11:10    3.69 14 57.00 3467 536.4 True x
10/24/2000 10:15    3.72 14 72.00 3514 691.3 True x
10/30/2000 14:30    3.89 14 36.00 3784 377.1 True x
11/10/2000 14:00    4.50 17.00 4790 222.0 True x
11/15/2000 11:00    4.23 13.00 4337 156.6 True x
11/27/2000 11:30    4.20 65.00 4287 756.6 True x
12/5/2000 14:30    3.85 112.00 3720 1,128.4 True x
12/15/2000 12:43    5.24 126.00 6088 2,071.2 True x
12/21/2000 10:45    5.75 83.00 7027 1,587.5 True x
12/27/2000 12:45    6.09 101.00 7672 2,109.7 True x
1/5/2001 10:15    5.48 98.00 6525 1,731.6 True x
1/15/2001 11:15    4.37 72.00 4570 897.2 True x
1/22/2001 09:30    3.94 122.00 3864 1,275.7 True x
1/28/2001 09:45    3.84 16.00 3704 160.8 True x
2/4/2001 08:15    4.50 18.00 4790 242.7 True x
2/13/2001 10:50    6.38 63.00 8233 1,405.2 True x
2/20/2001 10:30    5.69 17.00 6915 329.6 True x
2/26/2001 10:30    6.73 65.00 8924 1,580.3 True x
3/3/2001 11:00    6.89 40.00 9245 1,017.8 True x
3/13/2001 11:15    6.47 50.00 8410 1,150.2 True x
3/18/2001 08:30    7.19 102.00 9854 2,721.1 True x
3/26/2001 11:00    7.03 51.00 9528 1,321.5 True x
4/3/2001 13:30    6.31 39.00 8097 873.1 True x
4/5/2001 09:49    6.09 32.00 7672 676.3 True x
4/5/2001 10:25    6.09  36.00 7672 748.4 True x
4/8/2001 07:32    5.90 10 136.00 7310 2,701.9 True x
4/16/2001 13:30    7.64 11 90.00 10790 2,640.0 True x
4/24/2001 14:00    7.08 15 80.00 9629 2,087.3 True x
5/2/2001 10:30    5.98 19 60.00 7462 1,211.8 True x
5/11/2001 11:30    6.90 19 50.00 9265 1,261.1 True x
5/22/2001 10:45    6.07 21 72.00 7634 1,501.9 True x
5/31/2001 11:15    5.70 16 50.00 6933 948.2 True x
6/11/2001 08:50    5.63 22 83.00 6803 1,524.7 True x
6/19/2001 13:00    6.56 25 88.00 8587 2,044.9 True x
6/25/2001 13:15    6.43 25 84.00 8331 1,898.4 True x
7/5/2001 08:50    5.92 24 62.00 7348 1,242.0 True x
7/11/2001 07:20    5.00 25 65.00 5658 996.4 True x
7/18/2001 09:00    4.34 25 93.00 4520 1,145.7 True x
7/24/2001 14:45    4.30 27 84.00 4453 1,019.8 True x
7/31/2001 10:35    3.92 28 70.00 3832 725.8 True x
8/7/2001 11:30    5.37 30 93.00 6324 1,596.0 True x
8/14/2001 13:00    3.94 26 82.00 3864 857.3 True x
8/21/2001 08:30    4.33 22 95.00 4503 1,160.3 True x
8/28/2001 09:00    4.82 23 72.00 5341 1,050.4 True x
9/10/2001 09:15    4.96 20 72.00 5587 1,086.3 True x
9/16/2001 09:30    4.73 20 36.00 5185 511.8 True x
9/24/2001 08:05    6.10 15 74.00 7691 1,543.4 True x
10/3/2001 10:45    4.82 17 40.00 5341 590.5 True x
10/12/2001 09:30    4.51 14 32.00 4807 422.0 True x
10/16/2001 11:00    4.46 13 25.00 4722 323.8 True x
10/18/2001 09:49    4.42 10 19.00 4654 244.6 True x
10/18/2001 10:21    4.42  20.00 4654 251.9 True x
10/23/2001 10:45    4.99 14 31.00 5640 485.1 True x
10/30/2001 10:45    5.87 10 40.00 7253 796.1 True x
11/7/2001 11:45    4.94 12 27.00 5552 414.7 True x
11/12/2001 11:15    4.56 19.00 4892 262.1 True x
11/19/2001 09:45    4.77 10 20.00 5254 293.4 True x
11/26/2001 11:15    4.90 33.00 5481 493.1 True x
12/5/2001 13:00    4.83 10 35.00 5359 507.2 True x
12/10/2001 14:00    4.64 26.00 5029 361.0 True x
12/17/2001 14:30    4.95 36.00 5570 551.1 True x
12/27/2001 10:30    4.29 43.00 4437 521.8 True x
1/4/2002 14:00    6.47 89.00 8410 2,029.5 True x
1/14/2002 10:00    3.96 71.00 3896 754.7 True x
1/21/2002 13:30    3.91 64.00 3816 664.3 True x
1/28/2002 13:30    4.03 98.00 4009 1,064.7 True x
2/7/2002 10:00    3.95 81.00 3880 856.0 True x
2/14/2002 11:00    4.43 17.00 4671 221.1 True x
2/25/2002 14:30    5.88 33.00 7272 654.7 True x
3/6/2002 10:30    5.04 17.00 5729 275.0 True x
3/14/2002 10:45    6.88 46.00 9225 1,147.9 True x
3/20/2002 14:00    6.25 35.00 7980 773.3 True x
3/26/2002 10:30    5.91 49.00 7329 973.9 True x
4/2/2002 13:15    5.29 39.00 6178 666.6 True x
4/3/2002 10:04    5.17 32.00 5962 522.5 True x
4/3/2002 10:34    5.17  31.00 5962 515.0 True x
4/12/2002 13:15    7.26 11 71.00 9997 1,927.5 True x
4/22/2002 09:00    6.05 12 63.00 7595 1,308.1 True x
5/3/2002 13:44    5.57 13 60.00 6692 1,096.6 True x
5/13/2002 13:45    5.49 13 42.00 6544 750.9 True x
5/21/2002 09:37    5.10 13 64.00 5836 1,016.4 True x
5/28/2002 15:00    4.75 20 65.00 5219 928.4 True x
6/4/2002 13:50    5.72 18 108.00 6971 2,048.4 True x
6/11/2002 13:45    5.48 19 90.00 6525 1,600.9 True x
6/18/2002 08:30    6.60 20 89.00 8666 2,105.1 True x
6/23/2002 14:00    5.18 27 174.00 5980 2,820.9 True x
7/1/2002 10:20    4.35 28 151.00 4537 1,853.9 True x
7/8/2002 10:15    3.53 26 204.00 3220 1,780.1 True x
7/22/2002 14:45    3.53 27 115.00 3220 1,002.5 True x
7/29/2002 14:30    3.27 26 77.00 2828 588.5 True x
8/28/2002 09:00    5.56 24 189.00 6673 3,411.8 True x
9/4/2002 08:10    3.29 21 125.00 2857 969.1 True x
9/19/2002 09:45    2.90 21 134.00 2293 831.1 True x
9/27/2002 09:00    3.00 21 143.00 2435 940.6 True x
10/2/2002 09:43    4.13 19 78.00 4172 884.1 True x
10/2/2002 10:19    4.13  72.00 4172 820.6 True x
10/18/2002 13:10    3.65 11 25.00 3405 231.2 True x
11/8/2002 08:20    3.13 15.00 2622 111.0 True x
12/9/2002 10:45    3.16 101.00 2666 727.8 True x
12/17/2002 08:45    3.21 9.00 2739 70.9 True x
1/15/2003 13:50    3.38 119.00 2992 967.5 True x
1/21/2003 10:20    3.60 82.00 3328 745.3 True x
1/31/2003 09:15    3.98 42.00 3928 447.6 True x
2/14/2003 14:30    3.70 77.00 3483 731.8 True x
2/21/2003 13:45    3.64 49.00 3390 449.8 True x
2/28/2003 10:30    3.59 52.00 3312 469.4 True x
3/7/2003 09:15    3.52 32.00 3204 283.6 True x
3/14/2003 13:45    3.43 50.00 3067 414.4 True x
3/21/2003 11:15    3.40 33.00 3022 270.2 True x
3/28/2003 14:00    3.71 11 38.00 3499 367.1 True x
4/11/2003 13:00    3.46 12 56.00 3113 473.5 True x
4/18/2003 10:30    3.07 14 152.00 2535 1,045.3 True x
4/25/2003 08:26    3.62 12 54.00 3358 493.8 True x
5/5/2003 08:11    4.85 13 76.00 5394 1,116.3 True x
5/7/2003 08:42    5.03 13 97.00 5711 1,501.3 True x
5/7/2003 09:20    5.03  83.00 5711 1,288.5 True x
10/22/2003 09:43    2.58 12 30.00 1855 152.2 True x
10/22/2003 10:19    2.58  28.00 1855 141.8 True x
2/27/2004 10:15    4.61  34.00 4978 464.8 True x
3/5/2004 15:00    5.74  36.00 7008 698.5 True x
3/12/2004 09:45    6.08  52.00 7653 1,077.8 True x
3/19/2004 13:15    5.13 10 45.00 5890 718.9 True x
3/26/2004 11:30    5.86 11 57.00 7234 1,119.4 True x
4/2/2004 14:30    6.68 13 29.00 8825 692.5 True x
4/9/2004 14:15    5.58 15 48.00 6710 876.9 True x
4/16/2004 11:15    5.12 13 49.00 5872 782.2 True x
4/23/2004 13:30    5.32 14 43.00 6233 739.4 True x
4/30/2004 15:10    4.77 15 39.00 5254 560.0 True x
5/7/2004 11:45    4.23 16 50.00 4337 586.1 True x
5/14/2004 15:00    4.94 19 40.00 5552 605.1 True x
5/19/2004 09:58    5.36 17 31.00 6306 531.7 True x
5/19/2004 10:28    5.36 17 31.00 6306 542.7 True x
5/25/2004 08:40    9.10 16 108.00 13950 4,082.9 True x
6/2/2004 08:50    10.87 17 97.00 18050 4,767.3 True x
6/9/2004 10:00    10.98 24 59.00 18310 2,949.8 True x
6/23/2004 09:00    9.75 21 94.00 15420 3,923.3 True x
6/30/2004 09:00    8.35 22 106.00 12300 3,544.3 True x
7/14/2004 14:10    6.86 25 85.00 9185 2,110.5 True x
7/25/2004 10:40    5.77 22 74.00 7065 1,412.3 True x
7/29/2004 09:30    5.10 23 63.00 5836 995.3 True x
8/4/2004 10:00    5.24 24 61.00 6088 1,017.7 True x
8/12/2004 10:15    4.65 20 52.00 5046 711.5 True x
8/20/2004 08:30    3.87 21 130.00 3752 1,318.8 True x
8/27/2004 15:00    3.65 23 98.00 3405 908.6 True x
9/3/2004 11:15    3.83 23 66.00 3688 666.9 True x
9/10/2004 08:45    3.17 20 130.00 2680 945.8 True x
9/17/2004 09:00    3.34 18 78.00 2932 618.5 True x
9/24/2004 09:00    2.89 18 124.00 2279 766.0 True x
10/4/2004 12:50    2.96 14 96.00 2378 622.3 True x
10/8/2004 14:00    3.18 16 44.00 2695 321.3 True x
10/15/2004 10:15    3.33 12 46.00 2917 367.6 True x
10/20/2004 09:27    2.95 50.00 2364 323.0 True x
10/20/2004 09:59    2.95  65.00 2364 417.1 True x
10/22/2004 11:15    3.10 11 126.00 2578 881.5 True x
11/1/2004 11:00    3.68 11 61.00 3452 576.1 True x
11/5/2004 12:30    3.59 10 103.00 3312 923.8 True x
11/12/2004 09:00    4.15 10 110.00 4205 1,253.8 True x
11/19/2004 12:30    3.46 10 26.00 3113 225.3 True x
11/26/2004 12:00    3.81 115.00 3656 1,143.2 True x
12/3/2004 12:00    4.01 129.00 3977 1,385.6 True x
12/10/2004 12:00    4.50 109.00 4790 1,418.6 True x
12/17/2004 12:00    3.93 144.00 3848 1,499.6 True x
12/23/2004 12:00    4.92 148.00 5517 2,214.6 True x
12/31/2004 12:00    4.11 44.00 4139 502.1 True x
1/7/2005 12:00    4.31 28.00 4470 346.7 True x
1/14/2005 12:00    5.23 9.00 6070 155.1 True x
1/21/2005 12:00    6.15 15.00 7787 328.3 True x
1/28/2005 12:00    5.09 112.00 5818 1,764.2 True x
2/4/2005 10:15    3.04 89.00 2492 604.8 True x
2/11/2005 12:00    6.30 100.00 8077 2,190.2 True x
2/18/2005 10:15    9.01 73.00 13750 2,718.3 True x
2/25/2005 14:00    7.26 67.00 9997 1,823.0 True x
3/7/2005 11:15    5.86 48.00 7234 937.4 True x
3/11/2005 14:00    6.53 30.00 8528 703.2 True x
3/18/2005 12:00    5.37 39.00 6324 669.3 True x
3/28/2005 11:00    5.62 21.00 6784 393.8 True x
4/1/2005 09:00    5.73 38.00 6990 729.7 True x
4/8/2005 12:15    5.71 14 53.00 6952 1,008.7 True x
4/15/2005 12:30    5.35 14 48.00 6287 822.4 True x
4/22/2005 13:00    4.81 14 24.00 5324 356.1 True x
4/29/2005 13:45    4.08 13 44.00 4090 496.2 True x
5/4/2005 09:50    3.49 10 31.00 3159 265.8 True x
5/4/2005 10:19    3.49  28.00 3159 243.7 True x
5/14/2005 12:30    4.01 18 135.00 3977 1,457.5 True x
5/21/2005 12:00    4.45 20 132.00 4705 1,687.6 True x
5/28/2005 11:45    3.82 21 135.00 3672 1,341.9 True x
6/3/2005 12:00    3.14 23 127.00 2637 910.7 True x
6/17/2005 11:45    2.78 24 81.00 2126 465.1 True x
6/21/2005 12:00    2.30 25 71.00 1493 289.2 True x
6/24/2005 12:00    2.71 26 13.00 2030 75.8 True x
7/1/2005 11:45    2.50 27 90.00 1750 428.4 True x
7/8/2005 12:30    2.58 28 74.00 1855 374.7 True x
7/18/2005 08:00    2.47 28 70.00 1711 325.9 True x
7/22/2005 12:30    2.32 29 46.00 1518 190.3 True x
7/29/2005 09:00    2.36 28 70.00 1569 299.5 True x
8/5/2005 11:15    2.41 28 115.00 1633 508.5 True x
8/12/2005 12:30    2.38 27 97.00 1594 420.0 True x
8/19/2005 14:45    2.44 28 39.00 1672 178.7 True x
8/26/2005 10:00    2.33 27 49.00 1531 205.2 True x
9/2/2005 11:30    2.18 26 46.00 1344 170.1 True x
9/9/2005 12:00    1.97 25 37.00 1094 110.4 True x
9/16/2005 11:00    2.21 23 41.00 1381 153.6 True x
9/23/2005 11:30    2.38 21 52.00 1594 224.7 True x
9/29/2005 10:45    2.47 19 49.00 1711 229.4 True x
10/4/2005 12:00    1.84 20 52.00 945 134.0 True x
10/5/2005 08:35    2.27 21 60.00 1455 237.2 True x
10/5/2005 09:09    2.27  69.00 1455 274.1 True x
10/21/2005 13:00    2.47 11 85.00 1711 392.7 True x
10/28/2005 11:00    2.11 10 99.00 1259 337.2 True x
11/4/2005 12:00    2.24 12 36.00 1418 138.0 True x
11/10/2005 13:00    3.11 10 42.00 2593 294.5 True x
11/18/2005 11:30    3.39 104.00 3007 847.7 True x
11/25/2005 13:00    3.12 88.00 2607 626.4 True x
12/5/2005 12:00    2.65 83.00 1949 437.6 True x
12/9/2005 12:30    3.16 100.00 2666 725.9 True x
12/16/2005 11:15    2.89 67.00 2279 416.4 True x
12/23/2005 13:30    3.24 59.00 2783 449.9 True x
12/30/2005 11:00    2.96 38.00 2378 246.3 True x
1/10/2006 13:30    3.43 50.00 3067 420.6 True x
1/13/2006 12:00    3.51 32.00 3189 283.5 True x
1/20/2006 11:00    4.18 22.00 4254 257.3 True x
1/27/2006 14:00    3.32 32.00 2902 254.2 True x
2/3/2006 12:00    4.29 43.00 4437 522.6 True x
2/10/2006 12:00    3.80 115.00 3640 1,131.0 True x
2/17/2006 12:15    3.08 76.00 2550 528.8 True x
2/24/2006 11:45    3.13 120.00 2622 855.6 True x
3/3/2006 12:15    3.09 113.00 2564 787.4 True x
3/10/2006 12:30    4.38 26.00 4587 322.4 True x
3/20/2006 10:45    6.37 31.00 8214 700.1 True x
3/24/2006 12:15    5.16 39.00 5944 639.1 True x
3/31/2006 14:00    4.65 45.00 5046 616.5 True x
4/7/2006 12:30    5.85 46.00 7215 907.4 True x
4/17/2006 11:00    6.04 13 105.00 7576 2,164.5 True x
4/21/2006 13:00    6.67 15 100.00 8805 2,395.1 True x
4/28/2006 12:45    4.99 16 64.00 5640 982.8 True x
5/5/2006 11:00    5.71 16 71.00 6952 1,350.0 True x
5/10/2006 09:36    5.01 14 43.00 5676 667.6 True x
5/10/2006 10:10    5.01  48.00 5676 748.8 True x
5/12/2006 11:00    5.20 16 39.00 6016 639.5 True x
5/22/2006 13:30    5.51 17 36.00 6581 651.0 True x
5/26/2006 11:45    5.51 19 110.00 6581 1,972.0 True x
6/2/2006 08:30    5.39 20 141.00 6360 2,435.0 True x
6/9/2006 12:00    4.67 22 82.00 5081 1,130.2 True x
6/16/2006 13:00    4.25 24 105.00 4370 1,245.3 True x
6/23/2006 15:00    4.87 22 91.00 5429 1,340.8 True x
6/30/2006 13:00    4.82 23 131.00 5341 1,902.1 True x
7/7/2006 11:30    3.19 25 119.00 2710 872.1 True x
7/14/2006 11:45    3.57 26 99.00 3281 879.2 True x
7/21/2006 13:00    3.80 28 71.00 3640 699.5 True x
7/28/2006 14:00    3.70 29 45.00 3483 429.0 True x
8/4/2006 10:45    3.19 29 49.00 2710 360.2 True x
8/11/2006 11:15    2.95 29 27.00 2364 178.0 True x
8/18/2006 14:30    2.61 29 27.00 1895 139.1 True x
8/25/2006 11:00    4.58 28 30.00 4926 408.6 True x
9/8/2006 14:30    3.56 21 18.00 3266 160.8 True x
9/15/2006 10:30    5.38 19 25.00 6342 443.2 True x
9/22/2006 08:30    4.99 17 19.00 5640 292.2 True x
9/29/2006 13:00    4.36 16 24.00 4554 297.9 True x
10/6/2006 12:30    4.30 17 21.00 4450 257.9 True x
10/16/2006 06:30    4.46 10 18.00 4720 234.1 True x
10/20/2006 10:30    4.78 10 17.00 5270 245.7 True x
10/25/2006 09:41    5.09 22.00 5820 360.2 True x
10/25/2006 10:13    5.09  17.00 5820 268.7 True x
10/27/2006 12:00    5.35 54.00 6290 922.5 True x
11/3/2006 12:00    4.66 75.00 5060 1,030.1 True x
11/10/2006 12:00    4.24 57.00 4350 675.2 True x
11/17/2006 14:00    4.65 62.00 5050 849.6 True x
11/24/2006 14:00    4.30 97.00 4450 1,176.9 True x
12/1/2006 12:00    5.71 88.00 6950 1,665.3 True x
12/8/2006 13:00    4.93 108.00 5530 1,616.4 True x
12/14/2006 09:00    5.35 82.00 6290 1,406.8 True x
12/22/2006 13:30    5.18 25.00 5980 408.2 True x
12/29/2006 10:30    5.41 31.00 6400 543.5 True x
1/5/2007 12:00    5.17 33.00 5960 540.3 True x
1/12/2007 12:00    4.71 29.00 5150 407.1 True x
1/19/2007 13:30    4.23 81.00 4340 959.3 True x
1/26/2007 11:30    4.28 110.00 4420 1,315.8 True x
2/2/2007 14:30    3.75 24.00 3560 233.4 True x
2/9/2007 12:30    5.46 24.00 6490 433.7 True x
2/16/2007 11:00    4.64 20.00 5030 279.4 True x
2/23/2007 12:45    3.55 175.00 3250 1,543.2 True x
3/2/2007 11:45    3.84 75.00 3700 755.7 True x
3/9/2007 12:00    4.43 76.00 4670 961.1 True x
3/16/2007 14:00    7.55 54.00 10600 1,557.7 True x
3/23/2007 13:30    8.04 111.00 11600 3,499.2 True x
3/30/2007 13:00    7.52 10 57.00 10500 1,624.9 True x
4/6/2007 14:15    9.33 69.00 14500 2,717.4 True x
4/13/2007 12:00    8.86 29.00 13400 1,064.6 True x
4/20/2007 15:00    7.86 13 51.00 11200 1,568.7 True x
4/27/2007 09:30    7.88 11 91.00 11300 2,786.2 True x
5/4/2007 12:00    7.32 16 60.00 10100 1,640.5 True x
5/8/2007 09:35    6.41 16 55.00 8290 1,233.1 True x
5/8/2007 10:12    6.41  58.00 8290 1,305.2 True x
5/11/2007 14:00    6.08 19 63.00 7650 1,321.1 True x
5/18/2007 13:00    5.41 17 133.00 6400 2,313.1 True x
5/25/2007 14:30    4.74 27 125.00 5200 1,757.2 True x
6/1/2007 12:00    4.07 23 134.00 4070 1,474.7 True x
6/8/2007 12:00    5.00 25 153.00 5660 2,352.2 True x
6/15/2007 11:00    4.00 26 67.00 3960 716.6 True x
6/22/2007 13:30    3.92 23 139.00 3830 1,441.5 True x
6/28/2007 13:00    3.78 28 51.00 3610 497.4 True x
7/6/2007 12:00    3.97 26 94.00 3910 999.9 True x
7/13/2007 12:00    3.26 26 166.00 2810 1,264.1 True x
7/20/2007 15:30    3.75 26 78.00 3560 751.4 True x
7/27/2007 14:30    3.16 27 164.00 2670 1,189.0 True x
8/3/2007 12:30    2.68 28 86.00 1990 462.2 True x
8/10/2007 14:00    5.85 27 93.00 7220 1,822.3 True x
8/17/2007 15:00    4.60 26 51.00 4960 694.9 True x
8/24/2007 12:00    10.86 24 49.00 18000 2,397.7 True x
8/31/2007 12:00    10.33 23 62.00 16800 2,843.8 True x
9/7/2007 15:30    8.99 22 44.00 13700 1,635.3 True x
9/14/2007 12:00    7.13 18 58.00 9730 1,536.2 True x
9/21/2007 13:00    5.54 21 169.00 6640 3,046.0 True x
9/28/2007 15:30    4.96 21 51.00 5590 775.4 True x
10/5/2007 15:00    4.91 22 44.00 5500 655.8 True x
10/12/2007 12:00    4.78 16 40.00 5270 573.6 True x
10/19/2007 12:15    5.04 14 38.00 5730 595.9 True x
10/25/2007 09:53    5.52 11 41.00 6600 731.7 True x
10/25/2007 10:26    5.52  37.00 6600 674.3 True x
10/26/2007 13:30    5.35 12 24.00 6290 422.8 True x
11/2/2007 15:30    4.72 10 17.00 5170 240.6 True x
11/9/2007 15:30    4.39 13.00 4600 165.2 True x
11/16/2007 12:00    3.89 86.00 3780 885.1 True x
11/23/2007 12:00    4.15 97.00 4210 1,113.5 True x
11/30/2007 15:30    3.95 67.00 3880 711.6 True x
12/7/2007 12:00    4.02 11.00 3990 122.1 True x
12/14/2007 14:00    4.52 8.00 4820 104.7 True x
12/21/2007 15:30    4.33 71.00 4500 873.5 True x
12/28/2007 15:30    5.43 24.00 6430 431.7 True x
1/4/2008 12:00    5.15 8.00 5930 142.3 True x
1/11/2008 13:00    8.03 26.00 11600 825.7 True x
1/18/2008 15:30    7.03 32.00 9530 847.1 True x
1/25/2008 12:00    8.84 10.00 13400 379.3 True x
2/1/2008 15:30    10.30 69.00 16700 3,155.3 True x
2/8/2008 11:00    7.34 11.00 10200 317.1 True x
2/15/2008 15:30    7.58 36.00 10700 1,061.9 True x
2/22/2008 13:30    8.15 77.00 11900 2,491.4 True x
2/29/2008 14:00    5.69 18.00 6910 345.1 True x
3/7/2008 15:30    7.49 7.00 10500 223.3 True x
3/14/2008 12:00    8.80 61.00 13300 2,197.6 True x
3/20/2008 15:30    9.84 70.00 15600 2,955.3 True x
3/28/2008 12:00    10.05 43.00 16100 1,899.2 True x
4/4/2008 15:45    10.53 1.00 17200 90.4 True x
4/11/2008 15:30    11.47 10 29.00 19500 1,560.7 True x
4/18/2008 12:30    11.82 14 35.00 20400 1,963.5 True x
4/25/2008 10:30    10.40 17 41.00 16900 1,908.3 True x
5/2/2008 13:30    11.02 15 31.00 18400 1,587.0 True x
5/6/2008 09:34    10.56 15 28.00 17300 1,328.9 True x
5/6/2008 10:10    10.54  32.00 17300 1,497.5 True x
5/9/2008 12:15    9.87 18 34.00 15700 1,460.7 True x
5/16/2008 15:45    8.60 17 35.00 12800 1,209.7 True x
5/23/2008 15:15    7.23 17 68.00 9940 1,827.7 True x
5/30/2008 12:00    6.39 20 40.00 8250 897.4 True x
6/6/2008 15:45    7.31 21 30.00 10100 844.6 True x
6/13/2008 15:45    13.64 23 99.00 25000 6,729.0 True x
6/20/2008 14:30    14.44 23 29.00 27100 2,183.2 True x
6/27/2008 15:30    13.00 23 83.00 23300 5,273.4 True x
7/3/2008 12:15    11.52 24 21.00 19600 1,114.3 True x
7/11/2008 15:45    10.76 25 89.00 17800 4,293.5 True x
7/18/2008 12:00    10.50 26 64.00 17200 2,997.0 True x
7/25/2008 12:15    8.33 25 40.00 12300 1,355.3 True x
8/1/2008 15:45    6.59 25 72.00 8650 1,695.9 True x
8/8/2008 12:15    5.74 24 89.00 7010 1,698.2 True x
8/15/2008 14:15    5.16 24 113.00 5940 1,824.5 True x
8/22/2008 12:00    4.47 24 66.00 4740 852.7 True x
8/29/2008 15:45    4.08 23 104.00 4090 1,158.0 True x
9/5/2008 15:45    4.61 21 50.00 4980 677.3 True x
9/12/2008 10:00    4.36 22 108.00 4550 1,328.8 True x
9/19/2008 15:30    4.98 21 37.00 5620 576.2 True x
9/26/2008 15:30    4.36 21 58.00 4550 723.2 True x
10/3/2008 10:00    3.96 14 33.00 3900 347.8 True x
10/8/2008 09:58    4.34 13 27.00 4520 340.6 True x
10/8/2008 10:29    4.34  24.00 4520 301.2 True x
10/10/2008 12:00    4.51 12 40.00 4810 519.5 True x
10/17/2008 15:30    4.32 11 54.00 4490 664.0 True x
10/24/2008 12:15    4.52 10 79.00 4820 1,040.0 True x
10/31/2008 10:00    4.18 15.00 4250 176.5 True x
11/7/2008 12:00    4.20 16.00 4290 189.0 True x
11/14/2008 15:45    4.47 20.00 4740 267.4 True x
11/21/2008 12:00    4.44 56.00 4690 711.8 True x
11/28/2008 15:45    4.25 100.00 4370 1,182.6 True x
12/5/2008 12:15    3.65 61.00 3410 570.6 True x
12/12/2008 13:30    4.24 63.00 4350 748.1 True x
12/19/2008 15:00    6.96 20.00 9390 522.0 True x
12/24/2008 12:15    8.42 27.00 12500 918.6 True x
1/2/2009 15:00    7.54 95.00 10600 2,741.2 True x
1/9/2009 12:00    5.55 33.00 6650 609.0 True x
1/16/2009 15:30    7.68 5.00 10900 158.1 True x
1/23/2009 13:30    6.44 89.00 8350 2,021.2 True x
1/30/2009 14:30    5.77 170.00 7060 3,248.5 True x
2/6/2009 14:30    5.20 74.00 6020 1,214.7 True x
2/13/2009 15:30    6.44 5.00 8350 120.6 True x
2/20/2009 08:30    6.03 25.00 7560 526.2 True x
2/27/2009 15:30    7.11 28.00 9690 751.5 True x
3/4/2009 09:00    7.07 42.00 9610 1,091.4 True x
3/13/2009 15:30    11.14 9.00 18700 457.3 True x
3/20/2009 15:30    9.95 28.00 15900 1,222.4 True x
3/27/2009 15:00    11.42 41.00 19400 2,167.6 True x
4/3/2009 15:45    10.64 35.00 17500 1,658.9 True x
4/10/2009 15:30    8.76 30.00 13200 1,079.1 True x
4/17/2009 15:45    7.44 58.00 10400 1,639.1 True x
4/22/2009 09:45    7.88 10 30.00 11300 933.1 True x
4/22/2009 10:19    7.88  31.00 11300 962.9 True x
4/24/2009 15:45    7.40 11 38.00 10300 1,071.0 True x
5/1/2009 15:45    9.81 13 65.00 15600 2,771.2 True x
5/8/2009 15:30    8.84 15 57.00 13400 2,075.1 True x
5/15/2009 15:45    8.70 18 152.00 13100 5,399.0 True x
5/22/2009 15:30    7.72 19 20.00 11000 610.8 True x
5/29/2009 15:45    7.17 18 124.00 9810 3,298.0 True x
6/5/2009 15:45    6.26 19 34.00 8000 747.2 True x
6/11/2009 15:45    5.93 20 91.00 7370 1,812.0 True x
6/19/2009 15:45    6.10 21 40.00 7690 838.4 True x
6/26/2009 15:45    7.25 24 111.00 9980 2,991.0 True x
7/3/2009 14:00    5.68 22 25.00 6900 477.8 True x
7/10/2009 15:30    4.94 19 69.00 5550 1,048.2 True x
7/16/2009 15:45    4.56 21 33.00 4890 443.6 True x
7/24/2009 15:30    4.72 23 25.00 5170 360.9 True x
7/31/2009 15:45    4.50 24 149.00 4790 1,928.8 True x
8/7/2009 15:45    3.93 27 120.00 3850 1,254.0 True x
8/14/2009 15:30    5.18 26 130.00 5980 2,102.3 True x
8/21/2009 15:45    4.12 25 55.00 4160 624.6 True x
8/28/2009 15:45    5.27 25 27.00 6140 462.4 True x
9/4/2009 15:30    4.25 24 108.00 4370 1,284.0 True x
9/11/2009 15:45    3.74 22 33.00 3550 317.0 True x
9/18/2009 15:45    3.48 21 31.00 3140 271.2 True x
9/25/2009 15:30    4.56 18 26.00 4890 354.0 True x
10/2/2009 15:45    4.40 13 165.00 4620 2,067.4 False x
10/7/2009 09:42    4.81 13 27.00 5320 394.8 False x
10/7/2009 10:16    4.81  24.00 5320 354.7 False x
10/9/2009 15:45    4.71 12 112.00 5150 1,564.6 False x
10/16/2009 15:45    4.79 12 28.00 5290 403.1 False x
10/23/2009 15:30    5.44 10 97.00 6450 1,697.4 False x
10/30/2009 15:45    6.48 39.00 8430 908.8 False x
11/6/2009 15:30    6.28 125.00 8040 2,730.5 False x
11/13/2009 12:15    5.26 30.00 6120 511.9 False x
11/20/2009 15:45    4.80 81.00 5310 1,171.4 False x
11/27/2009 15:45    5.78 118.00 7080 2,270.1 False x
12/4/2009 15:30    5.19 91.00 6000 1,478.3 False x
12/11/2009 15:45    4.36 112.00 4550 1,382.0 False x
12/18/2009 15:30    4.84 36.00 5380 527.7 False x
12/25/2009 15:30    4.80 132.00 5310 1,899.5 False x
1/1/2010 15:30    6.74 22.00 8940 551.0 False x
1/8/2010 15:45    5.72 119.00 6970 2,246.3 False x
1/15/2010 15:30    5.68 101.00 6900 1,891.0 False x
1/22/2010 15:45    5.19 93.00 6000 1,522.0 False x
1/29/2010 15:30    5.70 108.00 6930 2,029.4 False x
2/5/2010 15:45    5.30 105.00 6200 1,769.6 False x
2/12/2010 15:45    4.59 110.00 4940 1,468.6 False x
2/19/2010 15:45    4.80 155.00 5310 2,225.0 False x
2/26/2010 15:30    4.34 261.00 4520 3,186.3 False x
3/5/2010 15:45    4.42 51.00 4650 644.0 False x
3/12/2010 15:30    7.83 79.00 11200 2,389.2 False x
3/19/2010 15:45    8.75 132.00 13200 4,735.8 False x
3/26/2010 15:45    7.73 57.00 11000 1,708.0 False x
4/2/2010 15:45    6.12 10 32.00 7730 671.0 False x
4/9/2010 15:45    6.12 12 67.00 7730 1,417.4 False x
4/16/2010 15:30    7.41 14 61.00 10300 1,709.3 False x
4/22/2010 15:45    6.21 14 32.00 7900 697.6 False x
4/30/2010 15:30    6.27 15 39.00 8020 850.3 False x
5/7/2010 15:45    5.85 14 36.00 7220 702.5 False x
5/14/2010 15:30    7.28 16 43.00 10000 1,164.6 False x
5/25/2010 09:30    6.41 26 60.00 8290 1,359.4 False x
7/10/2010 15:45    6.54 26 117.00 8550 2,717.0 False x
7/17/2010 15:30    5.79 25 70.00 7100 1,358.4 False x
7/23/2010 15:45    7.02 26 143.00 9510 3,677.8 False x
7/30/2010 15:45    12.56 26 146.00 22200 8,761.1 False x
8/6/2010 15:30    9.29 26 59.00 14400 2,319.2 False x
8/13/2010 15:45    8.34 27 87.00 12300 2,909.2 False x
8/20/2010 15:30    8.09 26 63.00 11700 1,992.9 False x
8/27/2010 15:30    6.31 24 40.00 8100 881.8 False x
9/3/2010 12:45    5.36 22 59.00 6310 1,018.3 False x
9/10/2010 15:45    5.34 21 51.00 6270 877.6 False x
9/17/2010 15:45    4.88 20 124.00 5450 1,835.4 False x
9/24/2010 15:45    4.75 18 32.00 5220 464.1 False x
10/1/2010 15:30    4.52 16 128.00 4820 1,676.2 False x
10/8/2010 15:45    4.21 15 55.00 4300 648.4 False x
10/15/2010 15:30    3.48 13 56.00 3140 478.0 False x
10/22/2010 10:30    4.09 11 73.00 4110 819.5 False x
10/29/2010 10:45    5.72 10 68.00 6970 1,297.0 False x
11/5/2010 15:45    5.10 10 82.00 5840 1,302.6 False x
11/12/2010 15:30    4.76 104.00 5240 1,476.5 False x
11/19/2010 15:45    4.67 97.00 5080 1,331.7 False x
12/10/2010 15:30    4.29 64.00 4440 779.2 False x
12/17/2010 15:45    6.43 80.00 8330 1,818.3 False x
12/22/2010 15:45    5.82 53.00 7160 1,036.6 False x
12/31/2010 15:45    4.48 101.00 4760 1,299.6 False x
1/7/2011 15:30    5.08 91.00 5800 1,437.1 False x
1/14/2011 15:45    4.50 101.00 4790 1,319.0 False x
1/21/2011 15:30    3.90 71.00 3800 731.6 False x
1/28/2011 15:30    4.15 31.00 4200 352.4 False x
2/4/2011 15:45    4.50 106.00 4790 1,374.1 False x
2/11/2011 15:45    4.65 82.00 5050 1,123.1 False x
2/18/2011 15:30    5.47 93.00 6510 1,636.6 False x
2/25/2011 15:45    7.12 33.00 9710 885.6 False x
3/4/2011 15:45    6.39 56.00 8250 1,249.3 False x
3/11/2011 15:30    6.80 63.00 9060 1,558.0 False x
3/18/2011 15:45    6.66 45.00 8780 1,090.2 False x
3/25/2011 15:45    8.88 10 65.00 13500 2,369.3 False x
4/1/2011 15:45    8.44 11 16.00 12500 540.3 False x
4/8/2011 15:30    7.85 12 27.00 11200 828.9 False x
4/15/2011 15:45    7.48 12 51.00 10500 1,468.4 False x
4/22/2011 15:30    7.97 13 72.00 11500 2,238.2 False x
4/29/2011 15:45    8.27 15 65.00 12100 2,132.3 False x
5/6/2011 15:30    7.47 16 47.00 10400 1,347.6 False x
5/13/2011 15:30    6.83 18 52.00 9120 1,297.4 False x
5/20/2011 15:30    6.20 18 58.00 7880 1,237.9 False x
5/27/2011 15:45    6.39 21 47.00 8250 1,063.9 False x
6/3/2011 12:30    5.56 25 63.00 6670 1,134.7 False x
6/10/2011 15:45    5.35 24 172.00 6290 2,922.9 False x
6/17/2011 15:45    5.12 22 62.00 5870 993.2 False x
6/24/2011 15:45    5.10 22 69.00 5840 1,089.3 False x
7/1/2011 15:30    4.51 25 118.00 4810 1,535.6 False x
7/15/2011 15:45    3.81 28 117.00 3660 1,164.2 False x
7/22/2011 14:30    3.75 29 90.00 3560 873.6 False x
7/29/2011 15:30    5.28 28 31.00 6160 520.4 False x
8/5/2011 15:30    5.51 25 71.00 6580 1,264.4 False x
8/12/2011 15:45    3.62 27 106.00 3360 965.2 False x
8/19/2011 15:30    3.57 27 51.00 3280 456.5 False x
8/26/2011 15:45    3.71 28 143.00 3500 1,357.3 False x
9/2/2011 15:45    3.27 28 114.00 2830 876.9 False x
9/9/2011 15:45    3.42 25 52.00 3050 428.6 False x
9/16/2011 15:45    3.18 17 8.00 2690 63.4 False x
9/23/2011 15:45    3.14 16 41.00 2640 296.5 False x
9/30/2011 15:30    3.80 15 120.00 3640 1,183.3 False x
10/7/2011 15:45    3.40 15 25.00 3020 208.7 False x
10/14/2011 15:30    3.64 14 92.00 3390 850.3 False x
10/21/2011 15:30    3.70 14 102.00 3480 963.5 False x
10/28/2011 15:45    3.68 12 54.00 3450 510.2 False x
11/4/2011 15:30    3.85 11 12.00 3720 130.1 False x
11/11/2011 15:30    5.24 67.00 6090 1,116.6 False x
11/18/2011 14:30    4.80 46.00 5310 665.2 False x
11/25/2011 15:30    4.45 93.00 4710 1,190.9 False x
12/2/2011 15:30    4.42 53.00 4650 666.2 False x
12/9/2011 15:45    5.00 45.00 5660 691.4 False x
12/16/2011 15:30    5.16 134.00 5940 2,157.3 False x
12/23/2011 15:45    4.77 31.00 5250 447.5 False x
12/30/2011 15:45    4.73 83.00 5180 1,171.0 False x
1/6/2012 15:45    4.51 75.00 4810 975.6 False x
1/13/2012 15:30    4.17 97.00 4240 1,115.2 False x
1/20/2012 15:45    3.65 95.00 3410 878.2 False x
1/27/2012 15:30    4.18 87.00 4250 1,000.6 False x
2/3/2012 15:30    4.50 80.00 4790 1,035.5 False x
2/10/2012 15:45    4.43 77.00 4670 975.4 False x
2/17/2012 15:30    4.17 115.00 4240 1,321.2 False x
2/24/2012 15:45    4.11 61.00 4140 692.8 False x
3/2/2012 15:45    4.85 47.00 5390 696.8 False x
3/9/2012 15:45    5.40 101.00 6380 1,745.0 False x
3/16/2012 15:30    5.75 13 58.00 7030 1,105.7 False x
3/23/2012 15:30    5.68 12 15.00 6900 280.7 False x
4/6/2012 15:45    5.21 11 125.00 6030 2,050.4 False x
4/13/2012 15:30    4.52 11 80.00 4820 1,048.8 False x
4/18/2012 17:49    5.07 15 121.00 5780 1,895.5 False x
4/18/2012 19:18    5.08 15 77.00 5800 1,215.2 False x
4/20/2012 12:15    5.05 13 95.00 5750 1,487.2 False x
4/27/2012 12:00    4.69 15 83.00 5120 1,155.5 False x
5/5/2012 11:45    4.87 17 81.00 5430 1,192.6 False x
5/11/2012 09:30    5.57 19 102.00 6690 1,855.4 False x
5/18/2012 11:15    4.99 21 116.00 5640 1,766.5 False x
5/25/2012 12:15    4.26 22 118.00 4390 1,408.5 False x
6/1/2012 15:30    4.21 23 53.00 4300 619.0 False x
6/8/2012 15:30    3.61 23 97.00 3340 881.6 False x
6/15/2012 15:45    2.94 25 49.00 2350 317.1 False x
6/22/2012 15:30    2.65 26 111.00 1950 589.0 False x
6/29/2012 15:45    2.53 26 56.00 1790 271.0 False x
7/6/2012 15:45    2.57 30 107.00 1840 534.0 False x
7/13/2012 15:30    2.06 30 80.00 1200 261.1 False x
7/20/2012 15:45    2.54 30 47.00 1800 232.5 False x
7/27/2012 15:30    2.59 28 116.00 1870 589.1 False x
8/3/2012 15:45    2.52 28 71.00 1780 344.9 False x
8/8/2012 15:17    2.44 26 39.00 1670 177.5 False x
8/8/2012 16:52    2.48 25 38.00 1720 176.6 False x
8/10/2012 15:45    2.14 24 113.00 1300 399.2 False x
8/17/2012 15:45    2.31 23 15.00 1510 62.2 False x
8/24/2012 15:30    2.44 25 74.00 1670 334.4 False x
8/31/2012 15:45    2.29 26 113.00 1480 453.6 False x
9/13/2012 09:40    2.24 19 116.00 1420 447.7 False x
9/13/2012 10:50    2.24 18 99.00 1420 379.8 False x
9/21/2012 15:45    2.24 18 81.00 1420 313.6 False x
9/28/2012 15:30    2.22 19 116.00 1390 436.0 False x
10/5/2012 15:45    2.19 18 123.00 1360 455.2 False x
10/12/2012 15:45    2.21 17 107.00 1380 402.2 False x
10/19/2012 15:45    2.96 16 84.00 2380 545.2 False x
10/26/2012 15:30    3.55 16 111.00 3250 980.6 False x
11/2/2012 15:45    3.23 12 135.00 2770 1,016.5 False x
11/9/2012 15:30    3.12 12 58.00 2610 413.4 False x
11/16/2012 15:45    3.15 97.00 2650 695.5 False x
11/19/2012 13:04    3.05 69.00 2510 473.8 False x
11/19/2012 14:17    3.09 10.00 2560 71.5 False x
11/23/2012 15:45    2.94 10 104.00 2350 664.8 False x
11/30/2012 15:30    3.11 10 107.00 2590 753.6 False x
12/7/2012 15:45    2.88 87.00 2270 534.0 False x
12/14/2012 15:45    2.94 39.00 2350 250.4 False x
12/21/2012 15:30    3.47 102.00 3130 866.7 False x
12/28/2012 15:45    3.22 99.00 2750 739.3 False x
1/4/2013 08:30    3.24 89.00 2780 669.0 False x
1/11/2013 15:45    3.20 18.00 2720 138.8 False x
1/18/2013 15:30    3.52 81.00 3200 703.3 False x
1/25/2013 15:45    4.38 67.00 4590 840.6 False x
2/1/2013 15:45    4.35 81.00 4540 998.1 False x
2/8/2013 15:45    4.57 64.00 4910 855.3 False x
2/14/2013 12:30    5.38 19.00 6340 334.5 False x
2/15/2013 16:55    5.52 -4 44.00 6600 791.0 False x
2/22/2013 15:45    4.87 104.00 5430 1,531.2 False x
3/1/2013 15:45    4.50 83.00 4790 1,075.9 False x
3/8/2013 15:45    3.96 168.00 3900 1,775.7 False x
3/15/2013 15:30    7.73 69.00 11000 2,067.6 False x
3/22/2013 15:45    7.39 18.00 10300 528.1 False x
3/29/2013 15:30    7.53 57.00 10600 1,647.9 False x
4/5/2013 15:45    8.07 106.00 11700 3,360.4 False x
4/11/2013 11:30    9.30 52.00 14400 2,058.6 False x
4/18/2013 15:45    11.27 56.00 19000 2,910.2 False x
4/26/2013 15:45    11.82 12 38.00 20400 2,116.9 False x
5/3/2013 15:30    9.57 14 24.00 15000 992.5 False x
5/10/2013 15:45    8.55 17 88.00 12700 3,043.0 False x
5/14/2013 13:00    8.50 32.00 12600 1,118.7 False x
5/14/2013 16:00    8.49 34.00 12600 1,176.6 False x
5/17/2013 15:45    7.91 17 27.00 11400 850.4 False x
5/24/2013 15:30    7.05 19 85.00 9570 2,206.9 False x
5/31/2013 15:45    7.13 20 70.00 9730 1,847.4 False x
6/7/2013 15:45    6.51 21 41.00 8490 941.8 False x
6/14/2013 15:45    6.06 20 18.00 7610 374.7 False x
6/21/2013 15:45    5.60 24 28.00 6750 516.4 False x
6/28/2013 15:30    11.36 24 34.00 19200 1,809.2 False x
7/3/2013 13:30    10.93 23 53.00 18200 2,642.3 False x
7/9/2013 12:51    8.53 19 45.00 12700 1,548.8 False x
7/9/2013 14:37    8.52 19 61.00 12700 2,093.9 False x
7/12/2013 15:45    8.31 27 65.00 12200 2,165.6 False x
7/19/2013 15:45    5.72 28 46.00 6970 874.7 False x
7/26/2013 15:45    5.31 28 102.00 6210 1,715.8 False x
8/2/2013 15:30    4.81 30 106.00 5320 1,526.6 False x
8/9/2013 15:45    4.35 29 157.00 4540 1,926.8 False x
8/16/2013 15:45    3.70 28 124.00 3480 1,168.5 False x
8/23/2013 15:30    3.63 26 50.00 3370 458.9 False x
8/30/2013 15:30    3.42 27 144.00 3050 1,193.9 False x
9/6/2013 10:30    3.36 26 38.00 2960 310.7 False x
9/13/2013 15:45    2.96 25 78.00 2380 501.9 False x
9/20/2013 15:45    3.15 23 105.00 2650 753.8 False x
9/27/2013 15:45    3.33 21 51.00 2920 403.4 False x
10/4/2013 15:30    3.63 18 102.00 3370 934.4 False x
10/11/2013 15:45    3.38 16 13.00 2990 108.5 False x
10/18/2013 15:30    3.80 11 46.00 3640 454.5 False x
10/25/2013 15:45    3.62  24.00 3360 219.7 False x
11/1/2013 15:45    3.76 13.00 3580 132.0 False x
11/8/2013 15:45    4.00  11.00 3960 123.4 False x
11/15/2013 15:30    3.89 23.00 3780 244.5 False x
12/3/2013 14:35    4.15 15.00 4200 171.1 False x
12/3/2013 15:42    4.15 83.00 4200 948.5 False x
12/6/2013 15:45    4.08 11.00 4090 125.1 False x
12/13/2013 15:45    4.72 189.00 5170 2,651.1 False x
12/20/2013 15:45    4.68 40.00 5100 560.9 False x
12/27/2013 15:30    4.70 23.00 5130 319.9 False x
1/3/2014 15:45    6.39 10.00 8250 243.1 False x
1/10/2014 15:30    5.35 8.00 6290 144.4 False x
3/7/2014 15:45    4.46 48.00 4720 623.1 False x
3/14/2014 15:30    5.85 221.00 7220 4,322.5 False x
3/21/2014 15:45    7.71 243.00 10900 7,177.6 False x
3/28/2014 15:45    6.35 116.00 8170 2,577.3 False x
4/4/2014 15:30    6.05 80.00 7600 1,645.3 False x
4/11/2014 15:45    5.32 10 33.00 6230 570.4 False x
4/18/2014 15:45    7.09 11 70.00 9650 1,835.3 False x
4/25/2014 15:30    6.77 12 77.00 9000 1,871.7 False x
5/2/2014 15:45    7.04 11 53.00 9550 1,367.8 False x
5/9/2014 15:45    6.29 12 32.00 8060 711.5 False x
5/16/2014 15:30    7.09 16 51.00 9650 1,344.2 False x
5/21/2014 15:30    6.53 10 51.00 8530 1,194.0 False x
5/22/2014 15:15    6.46 21 62.00 8390 1,406.1 False x
5/22/2014 16:45    6.43 21 79.00 8330 1,797.2 False x
6/20/2014 15:30    6.73 26 46.00 8920 1,114.8 False x
6/27/2014 15:30    7.39 26 51.00 10300 1,441.2 False x
7/3/2014 15:45    8.49 28 67.00 12600 2,283.8 False x
7/11/2014 15:45    7.22 27 38.00 9920 1,025.8 False x
7/18/2014 15:30    6.53 28 8.00 8530 205.1 False x
7/25/2014 15:45    5.40 28 25.00 6380 446.4 False x
8/1/2014 15:45    4.52 27 58.00 4820 756.8 False x
8/8/2014 15:45    4.26 27 14.00 4390 169.1 False x
8/15/2014 15:30    3.28 28 33.00 2840 254.5 False x
8/22/2014 15:45    3.88 29 57.00 3770 583.1 False x
8/29/2014 15:30    4.53 28 57.00 4840 749.6 False x
9/5/2014 15:30    4.18 27 23.00 4250 268.1 False x
9/12/2014 15:45    3.44 24 87.00 3080 726.8 False x
9/26/2014 15:45    3.38 20 65.00 2990 529.8 False x
10/10/2014 15:30    3.80 14 88.00 3640 869.9 False x
10/17/2014 15:45    5.06 12 85.00 5760 1,325.3 False x
10/24/2014 15:30    4.31 12 36.00 4470 444.9 False x
10/31/2014 15:45    4.01 10 25.00 3980 273.1 False x
11/7/2014 15:45    3.16 73.00 2670 531.6 False x
11/14/2014 15:45    3.04 95.00 2490 643.8 False x
11/21/2014 15:45    2.80 96.00 2150 562.4 False x
11/28/2014 15:30    3.42 13.00 3050 107.4 False x
12/5/2014 15:45    3.41 24.00 3040 200.6 False x
12/12/2014 15:45    3.23 93.00 2770 700.9 False x
12/19/2014 15:45    3.54 100.00 3240 881.8 False x
12/24/2014 15:45    3.63 106.00 3370 967.8 False x
1/2/2015 15:30    3.26 99.00 2810 753.4 False x
1/9/2015 15:45    5.88 108.00 7270 2,122.3 False x
1/16/2015 15:30    4.67 9.00 5080 126.5 False x
1/23/2015 15:30    3.40 109.00 3020 893.3 False x
1/30/2015 15:45    2.93 9.00 2340 57.7 False x
2/6/2015 15:45    2.86 113.00 2240 688.1 False x
2/13/2015 15:30    2.65 38.00 1950 202.2 False x
2/20/2015 15:45    2.80 18.00 2150 106.8 False x
2/27/2015 15:30    2.74 95.00 2070 533.2 False x
3/6/2015 15:30    2.55 40.00 1820 196.8 False x
3/13/2015 15:45    4.14 10.00 4190 120.1 False x
3/20/2015 15:45    3.72 10 80.00 3510 763.8 False x
3/27/2015 15:45    3.72 11 79.00 3510 752.4 False x
4/3/2015 15:30    3.32 12 41.00 2900 327.8 False x
4/10/2015 15:45    4.02 13 29.00 3990 318.2 False x
4/17/2015 15:30    4.68 12 29.00 5100 402.1 False x
4/24/2015 15:45    4.67 14 70.00 5080 968.0 False x
5/1/2015 15:45    4.76 16 9.00 5240 138.7 False x
5/6/2015 14:10    4.35 19 57.00 4540 699.5 False x
5/6/2015 15:17    4.28 19 59.00 4420 715.3 False x
5/8/2015 15:45    4.17 18 79.00 4240 910.1 False x
5/15/2015 15:45    3.63 18 29.00 3370 266.6 False x
5/22/2015 15:45    3.32 19 2.00 2900 16.9 False x
5/29/2015 15:30    4.22 19 41.00 4320 482.5 False x
6/12/2015 15:45    4.06 20 123.00 4060 1,354.6 False x
6/17/2015 12:18    6.03 22 135.00 7560 2,756.8 False x
6/17/2015 14:12    6.31 23 100.00 8100 2,207.5 False x
6/19/2015 15:30    6.38 21 128.00 8230 2,861.7 False x
6/26/2015 15:45    5.96 21 86.00 7420 1,737.0 False x
7/3/2015 15:45    4.05 20 130.00 4040 1,420.8 False x
7/17/2015 15:45    4.29 24 67.00 4440 805.9 False x
7/24/2015 15:30    4.03 25 25.00 4010 279.8 False x
7/31/2015 11:30    2.58 25 200.00 1860 1,009.1 False x
8/7/2015 12:30    2.40 24 56.00 1620 246.8 False x
8/21/2015 15:45    2.73 25 64.00 2060 358.3 False x
8/25/2015 12:14    2.25 22 96.00 1430 371.1 False x
8/25/2015 13:19    2.25 22 98.00 1430 378.6 False x
8/28/2015 15:45    2.15 25 28.00 1310 102.5 False x
9/4/2015 15:45    2.56 24 72.00 1830 356.4 False x
9/11/2015 15:45    2.87 23 32.00 2250 196.5 False x
9/18/2015 15:45    2.95 21 5.00 2360 34.5 False x
9/25/2015 11:15    3.95 20 58.00 3880 613.6 False x
10/2/2015 15:45    3.63 18 26.00 3370 243.2 False x
10/5/2015 14:34    3.33 14 33.00 2920 267.3 False x
10/5/2015 15:44    3.32 14 41.00 2900 323.6 False x
10/9/2015 11:15    2.89 18 34.00 2280 215.2 False x
10/16/2015 15:45    2.66 17 31.00 1960 164.5 False x
10/23/2015 15:30    2.30 16 60.00 1490 242.3 False x
10/30/2015 15:45    3.57 16 42.00 3280 376.2 False x
11/6/2015 15:45    3.34 15 100.00 2930 797.2 False x
11/13/2015 15:45    3.07 13 34.00 2540 234.1 False x
11/27/2015 15:30    5.93 84.00 7370 1,688.6 False x
12/4/2015 15:45    6.89 610.00 9240 15,234.4 False x
12/18/2015 15:45    7.38 42.00 10200 1,167.8 False x
12/22/2015 19:28    7.49 77.00 10500 2,185.2 False x
12/22/2015 20:25    7.49 127.00 10500 3,603.2 False x
1/20/2016 15:45    8.68 145.00 14000 5,517.9 False x
1/27/2016 15:45    5.27 122.00 6930 2,299.4 False x
2/5/2016 15:30    4.87 160.00 6190 2,688.7 False x
2/12/2016 15:45    4.09 26.00 4810 345.7 False x
2/19/2016 15:45    4.43 193.00 5400 2,820.6 False x
2/26/2016 15:45    5.38 140.00 7130 2,700.1 False x
3/4/2016 15:30    4.89 132.00 6220 2,220.1 False x
3/11/2016 15:30    5.29 129.00 6960 2,434.8 False x
3/18/2016 15:45    6.13 62.00 8590 1,456.6 False x
3/25/2016 15:45    6.70 10 117.00 9740 3,084.4 False x
4/1/2016 11:00    6.69 10 69.00 9720 1,831.1 False x
4/8/2016 15:30    6.82 11 114.00 9990 3,088.3 False x
4/11/2016 13:55    6.78 43.00 9910 1,158.8 False x
4/11/2016 14:58    6.78 36.00 9910 969.2 False x
4/22/2016 15:30    5.72 12 160.00 7790 3,381.8 False x
4/29/2016 15:30    5.15 12 68.00 6700 1,239.5 False x
5/6/2016 15:30    5.07 13 98.00 6550 1,737.8 False x
5/13/2016 15:45    4.96 15 127.00 6350 2,190.3 False x
5/20/2016 15:30    4.36 18 98.00 5280 1,401.8 False x
5/27/2016 15:45    3.79 22 48.00 4300 562.8 False x
6/3/2016 15:30    4.18 21 102.00 4960 1,366.0 False x
6/10/2016 12:30    3.69 24 121.00 4140 1,353.7 False x
6/13/2016 15:37    4.08 24 55.00 4790 712.0 False x
6/13/2016 16:44    4.08 24 59.00 4790 775.9 False x
8/3/2016 12:50    3.47 26 125.00 3780 1,285.6 False x
8/3/2016 13:51    3.47 26 123.00 3780 1,256.3 False x
8/19/2016 15:30    3.71 26 136.00 4170 1,532.6 False x
8/26/2016 15:30    4.31 24 74.00 5190 1,050.5 False x
9/2/2016 15:45    4.14 23 32.00 4890 424.6 False x
9/8/2016 15:45    4.63 21 24.00 5750 383.9 False x
9/16/2016 15:45    4.38 21 38.00 5310 547.8 False x
9/23/2016 15:30    4.84 19 30.00 6130 497.0 False x
9/30/2016 15:45    4.78 16 24.00 6020 393.1 False x
10/7/2016 15:30    4.67 16 202.00 5820 3,188.3 False x
10/14/2016 15:45    4.51 14 81.00 5540 1,218.6 False x
10/18/2016 12:46    4.64 18 25.00 5770 396.5 False x
10/18/2016 13:28    4.65 18 23.00 5790 364.3 False x
10/21/2016 15:45    4.75 13 65.00 5970 1,057.4 False x
10/28/2016 15:45    5.52 13 61.00 7400 1,224.6 False x
11/4/2016 15:30    6.09 13 76.00 8510 1,761.5 False x
11/11/2016 15:45    5.33 9.00 7040 188.6 False x
11/18/2016 15:45    4.66 54.00 5810 860.9 False x
11/25/2016 15:45    4.48 49.00 5490 741.0 False x
12/2/2016 15:30    5.81 23.00 7960 512.8 False x
12/9/2016 15:30    4.93 7.00 6300 120.2 False x
12/16/2016 15:45    5.80 11.00 7940 241.8 False x
12/23/2016 15:45    7.05 21.00 10500 622.6 False x
12/30/2016 15:45    5.36 43.00 7100 827.5 False x
1/6/2017 15:30    4.45 48.00 5430 715.8 False x
1/13/2017 15:45    5.28 11.00 6950 209.7 False x
1/20/2017 15:30    5.77 12.00 7880 257.1 False x
1/26/2017 16:13    7.58 45.00 11600 1,438.0 False x
1/27/2017 15:45    7.48 48.00 11400 1,482.4 False x
2/3/2017 15:45    5.84 23.00 8020 509.9 False x
2/10/2017 15:45    5.23 31.00 6850 584.8 False x
2/17/2017 15:45    5.29 16.00 6960 311.0 False x
2/24/2017 15:30    5.85 115.00 8040 2,505.4 False x
3/3/2017 15:30    6.49 158.00 9310 3,996.1 False x
3/10/2017 15:45    6.43 316.00 9190 7,841.6 False x
3/17/2017 15:45    6.00 496.00 8330 11,159.3 False x
3/21/2017 12:50    5.90 27.00 8140 598.1 False x
3/21/2017 13:35    5.87 27.00 8080 596.1 False x

Data Set Parameters and Explanation

Help with downloading, csv files, printing, and more





Illinois State Water Survey

2204 Griffith Dr
Champaign, IL 61820-7463
217-244-5459
info@isws.illinois.edu

Terms of use. Email the Web Administrator with questions or comments.

© 2017 University of Illinois Board of Trustees. All rights reserved.
For permissions information, contact the Illinois State Water Survey.
Site Map